Time,TemperatureF,DewpointF,PressureIn,WindDirection,WindDirectionDegrees,WindSpeedMPH,WindSpeedGustMPH,Humidity,HourlyPrecipIn,Conditions,Clouds,dailyrainin,SolarRadiationWatts/m^2,SoftwareType,DateUTC
2013-01-25 00:00:00,20.3,7.9,30.23,South,175,6.0,7.0,58,0.00,,,0.00,0,Wunderground v.1.15,2013-01-25 06:00:00,
2013-01-25 00:02:00,20.3,7.9,30.23,South,181,4.0,7.0,58,0.00,,,0.00,0,Wunderground v.1.15,2013-01-25 06:02:00,
2013-01-25 00:05:00,20.3,7.9,30.23,South,187,7.0,10.0,58,0.00,,,0.00,0,Wunderground v.1.15,2013-01-25 06:05:00,
2013-01-25 00:06:00,20.3,7.5,30.23,SSW,194,7.0,10.0,57,0.00,,,0.00,0,Wunderground v.1.15,2013-01-25 06:06:00,
2013-01-25 00:08:00,20.3,7.5,30.23,South,178,6.0,10.0,57,0.00,,,0.00,0,Wunderground v.1.15,2013-01-25 06:08:00,
2013-01-25 00:10:00,20.3,7.5,30.24,SSW,201,7.0,8.0,57,0.00,,,0.00,0,Wunderground v.1.15,2013-01-25 06:10:00,
2013-01-25 00:12:00,20.3,7.5,30.24,SSW,201,7.0,8.0,57,0.00,,,0.00,0,Wunderground v.1.15,2013-01-25 06:12:00,
2013-01-25 00:13:00,20.3,7.9,30.24,South,181,8.0,8.0,58,0.00,,,0.00,0,Wunderground v.1.15,2013-01-25 06:13:00,
2013-01-25 00:15:00,20.3,7.9,30.24,SSW,194,4.0,8.0,58,0.00,,,0.00,0,Wunderground v.1.15,2013-01-25 06:15:00,
2013-01-25 00:18:00,20.3,8.2,30.24,SSW,203,5.0,8.0,59,0.00,,,0.00,0,Wunderground v.1.15,2013-01-25 06:18:00,
2013-01-25 00:19:00,20.3,7.9,30.23,South,190,7.0,8.0,58,0.00,,,0.00,0,Wunderground v.1.15,2013-01-25 06:19:00,
2013-01-25 00:22:00,20.3,7.9,30.24,South,189,6.0,7.0,58,0.00,,,0.00,0,Wunderground v.1.15,2013-01-25 06:22:00,
2013-01-25 00:23:00,20.3,7.9,30.24,South,186,9.0,9.0,58,0.00,,,0.00,0,Wunderground v.1.15,2013-01-25 06:23:00,
2013-01-25 00:24:00,20.3,7.9,30.24,SSW,205,7.0,9.0,58,0.00,,,0.00,0,Wunderground v.1.15,2013-01-25 06:24:00,
2013-01-25 00:28:00,20.3,7.9,30.23,SSW,193,5.0,9.0,58,0.00,,,0.00,0,Wunderground v.1.15,2013-01-25 06:28:00,
2013-01-25 00:29:00,20.3,8.2,30.23,SSW,212,7.0,9.0,59,0.00,,,0.00,0,Wunderground v.1.15,2013-01-25 06:29:00,
2013-01-25 00:33:00,20.3,8.6,30.23,SSW,211,6.0,7.0,60,0.00,,,0.00,0,Wunderground v.1.15,2013-01-25 06:33:00,
2013-01-25 00:34:00,20.3,8.2,30.23,SSW,192,6.0,7.0,59,0.00,,,0.00,0,Wunderground v.1.15,2013-01-25 06:34:00,
2013-01-25 00:36:00,20.3,8.6,30.22,South,187,4.0,7.0,60,0.00,,,0.00,0,Wunderground v.1.15,2013-01-25 06:36:00,
2013-01-25 00:40:00,20.3,8.2,30.22,SSW,199,7.0,7.0,59,0.00,,,0.00,0,Wunderground v.1.15,2013-01-25 06:40:00,
2013-01-25 00:41:00,20.3,8.2,30.22,SSW,192,5.0,7.0,59,0.00,,,0.00,0,Wunderground v.1.15,2013-01-25 06:41:00,
2013-01-25 00:45:00,20.3,8.2,30.22,SSW,202,6.0,7.0,59,0.00,,,0.00,0,Wunderground v.1.15,2013-01-25 06:45:00,
2013-01-25 00:46:00,20.3,8.2,30.22,SSW,199,6.0,7.0,59,0.00,,,0.00,0,Wunderground v.1.15,2013-01-25 06:46:00,
2013-01-25 00:49:00,20.4,8.3,30.21,SSW,196,7.0,8.0,59,0.00,,,0.00,0,Wunderground v.1.15,2013-01-25 06:49:00,
2013-01-25 00:50:00,20.4,8.3,30.21,South,190,6.0,6.0,59,0.00,,,0.00,0,Wunderground v.1.15,2013-01-25 06:50:00,
2013-01-25 00:52:00,20.4,8.3,30.22,SSW,200,7.0,7.0,59,0.00,,,0.00,0,Wunderground v.1.15,2013-01-25 06:52:00,
2013-01-25 00:53:00,20.4,8.3,30.22,SSW,202,7.0,7.0,59,0.00,,,0.00,0,Wunderground v.1.15,2013-01-25 06:53:00,
2013-01-25 00:57:00,20.4,8.3,30.22,SSW,200,6.0,7.0,59,0.00,,,0.00,0,Wunderground v.1.15,2013-01-25 06:57:00,
2013-01-25 00:58:00,20.4,8.3,30.22,SSW,200,4.0,7.0,59,0.00,,,0.00,0,Wunderground v.1.15,2013-01-25 06:58:00,
2013-01-25 01:00:00,20.4,8.7,30.22,SSW,200,7.0,7.0,60,0.00,,,0.00,0,Wunderground v.1.15,2013-01-25 07:00:00,
2013-01-25 01:02:00,20.5,8.8,30.22,SSW,203,7.0,7.0,60,0.00,,,0.00,0,Wunderground v.1.15,2013-01-25 07:02:00,
2013-01-25 01:04:00,20.5,8.4,30.22,SSW,210,4.0,7.0,59,0.00,,,0.00,0,Wunderground v.1.15,2013-01-25 07:04:00,
2013-01-25 01:07:00,20.5,8.0,30.22,SSW,207,4.0,7.0,58,0.00,,,0.00,0,Wunderground v.1.15,2013-01-25 07:07:00,
2013-01-25 01:08:00,20.5,8.4,30.21,SSW,204,6.0,7.0,59,0.00,,,0.00,0,Wunderground v.1.15,2013-01-25 07:08:00,
2013-01-25 01:10:00,20.5,8.0,30.21,SSW,204,6.0,6.0,58,0.00,,,0.00,0,Wunderground v.1.15,2013-01-25 07:10:00,
2013-01-25 01:12:00,20.6,8.1,30.21,SSW,206,5.0,6.0,58,0.00,,,0.00,0,Wunderground v.1.15,2013-01-25 07:12:00,
2013-01-25 01:13:00,20.6,8.5,30.21,SSW,194,5.0,6.0,59,0.00,,,0.00,0,Wunderground v.1.15,2013-01-25 07:13:00,
2013-01-25 01:16:00,20.6,8.5,30.20,South,191,5.0,7.0,59,0.00,,,0.00,0,Wunderground v.1.15,2013-01-25 07:16:00,
2013-01-25 01:18:00,20.5,8.4,30.20,SSW,192,7.0,7.0,59,0.00,,,0.00,0,Wunderground v.1.15,2013-01-25 07:18:00,
2013-01-25 01:20:00,20.5,8.4,30.19,South,184,5.0,6.0,59,0.00,,,0.00,0,Wunderground v.1.15,2013-01-25 07:20:00,
2013-01-25 01:21:00,20.5,8.4,30.19,South,186,9.0,9.0,59,0.00,,,0.00,0,Wunderground v.1.15,2013-01-25 07:21:00,
2013-01-25 01:24:00,20.4,8.3,30.19,South,182,6.0,9.0,59,0.00,,,0.00,0,Wunderground v.1.15,2013-01-25 07:24:00,
2013-01-25 01:26:00,20.4,8.3,30.18,South,186,6.0,9.0,59,0.00,,,0.00,0,Wunderground v.1.15,2013-01-25 07:26:00,
2013-01-25 01:28:00,20.3,8.2,30.19,South,186,6.0,9.0,59,0.00,,,0.00,0,Wunderground v.1.15,2013-01-25 07:28:00,
2013-01-25 01:29:00,20.3,8.2,30.19,SSW,194,7.0,9.0,59,0.00,,,0.00,0,Wunderground v.1.15,2013-01-25 07:29:00,
2013-01-25 01:31:00,20.3,8.6,30.18,South,186,4.0,8.0,60,0.00,,,0.00,0,Wunderground v.1.15,2013-01-25 07:31:00,
2013-01-25 01:33:00,20.3,8.6,30.18,SSW,192,7.0,8.0,60,0.00,,,0.00,0,Wunderground v.1.15,2013-01-25 07:33:00,
2013-01-25 01:36:00,20.2,8.5,30.17,South,179,5.0,8.0,60,0.00,,,0.00,0,Wunderground v.1.15,2013-01-25 07:36:00,
2013-01-25 01:37:00,20.2,8.9,30.17,South,177,5.0,8.0,61,0.00,,,0.00,0,Wunderground v.1.15,2013-01-25 07:37:00,
2013-01-25 01:39:00,20.3,9.0,30.17,SSW,192,5.0,8.0,61,0.00,,,0.00,0,Wunderground v.1.15,2013-01-25 07:39:00,
2013-01-25 01:42:00,20.3,9.0,30.18,SSW,205,5.0,6.0,61,0.00,,,0.00,0,Wunderground v.1.15,2013-01-25 07:42:00,
2013-01-25 01:44:00,20.4,9.1,30.18,SSW,198,6.0,7.0,61,0.00,,,0.00,0,Wunderground v.1.15,2013-01-25 07:44:00,
2013-01-25 01:46:00,20.4,9.1,30.18,SSW,204,7.0,7.0,61,0.00,,,0.00,0,Wunderground v.1.15,2013-01-25 07:46:00,
2013-01-25 01:47:00,20.4,9.1,30.18,SSW,210,5.0,7.0,61,0.00,,,0.00,0,Wunderground v.1.15,2013-01-25 07:47:00,
2013-01-25 01:52:00,20.5,9.2,30.18,SSW,202,6.0,6.0,61,0.00,,,0.00,0,Wunderground v.1.15,2013-01-25 07:52:00,
2013-01-25 01:53:00,20.6,9.3,30.18,SSW,198,6.0,6.0,61,0.00,,,0.00,0,Wunderground v.1.15,2013-01-25 07:53:00,
2013-01-25 01:55:00,20.6,9.3,30.17,South,187,5.0,6.0,61,0.00,,,0.00,0,Wunderground v.1.15,2013-01-25 07:55:00,
2013-01-25 01:58:00,20.6,9.3,30.16,South,183,8.0,8.0,61,0.00,,,0.00,0,Wunderground v.1.15,2013-01-25 07:58:00,
2013-01-25 02:00:00,20.6,9.6,30.16,SSW,194,7.0,7.0,62,0.00,,,0.00,0,Wunderground v.1.15,2013-01-25 08:00:00,
2013-01-25 02:01:00,20.6,9.6,30.16,SSW,194,10.0,10.0,62,0.00,,,0.00,0,Wunderground v.1.15,2013-01-25 08:01:00,
2013-01-25 02:05:00,20.6,9.6,30.16,SW,215,9.0,10.0,62,0.00,,,0.00,0,Wunderground v.1.15,2013-01-25 08:05:00,
2013-01-25 02:06:00,20.6,9.6,30.16,SSW,212,7.0,10.0,62,0.00,,,0.00,0,Wunderground v.1.15,2013-01-25 08:06:00,
2013-01-25 02:08:00,20.7,10.1,30.16,SSW,208,7.0,10.0,63,0.00,,,0.00,0,Wunderground v.1.15,2013-01-25 08:08:00,
2013-01-25 02:11:00,20.7,10.4,30.16,SSW,213,7.0,10.0,64,0.00,,,0.00,0,Wunderground v.1.15,2013-01-25 08:11:00,
2013-01-25 02:14:00,20.7,10.8,30.16,SSW,202,7.0,11.0,65,0.00,,,0.00,0,Wunderground v.1.15,2013-01-25 08:14:00,
2013-01-25 02:16:00,20.8,10.9,30.15,SSW,198,8.0,11.0,65,0.00,,,0.00,0,Wunderground v.1.15,2013-01-25 08:16:00,
2013-01-25 02:19:00,20.8,11.2,30.16,SSW,205,11.0,11.0,66,0.00,,,0.00,0,Wunderground v.1.15,2013-01-25 08:19:00,
2013-01-25 02:21:00,20.8,11.2,30.16,SSW,207,5.0,9.0,66,0.00,,,0.00,0,Wunderground v.1.15,2013-01-25 08:21:00,
2013-01-25 02:22:00,20.8,11.2,30.16,SSW,194,7.0,9.0,66,0.00,,,0.00,0,Wunderground v.1.15,2013-01-25 08:22:00,
2013-01-25 02:23:00,20.8,11.6,30.16,SSW,209,8.0,9.0,67,0.00,,,0.00,0,Wunderground v.1.15,2013-01-25 08:23:00,
2013-01-25 02:26:00,20.8,11.6,30.16,SW,216,9.0,12.0,67,0.00,,,0.00,0,Wunderground v.1.15,2013-01-25 08:26:00,
2013-01-25 02:27:00,20.8,11.6,30.16,SSW,210,9.0,12.0,67,0.00,,,0.00,0,Wunderground v.1.15,2013-01-25 08:27:00,
2013-01-25 02:29:00,20.8,11.6,30.16,SSW,207,9.0,12.0,67,0.00,,,0.00,0,Wunderground v.1.15,2013-01-25 08:29:00,
2013-01-25 02:30:00,20.8,11.9,30.15,SSW,202,5.0,8.0,68,0.00,,,0.00,0,Wunderground v.1.15,2013-01-25 08:30:00,
2013-01-25 02:33:00,20.8,11.9,30.15,SSW,210,7.0,8.0,68,0.00,,,0.00,0,Wunderground v.1.15,2013-01-25 08:33:00,
2013-01-25 02:34:00,20.8,11.9,30.15,SSW,203,7.0,10.0,68,0.00,,,0.00,0,Wunderground v.1.15,2013-01-25 08:34:00,
2013-01-25 02:36:00,20.7,11.8,30.15,SSW,202,8.0,10.0,68,0.00,,,0.00,0,Wunderground v.1.15,2013-01-25 08:36:00,
2013-01-25 02:39:00,20.7,12.1,30.16,SSW,203,7.0,11.0,69,0.00,,,0.00,0,Wunderground v.1.15,2013-01-25 08:39:00,
2013-01-25 02:41:00,20.7,12.1,30.16,SW,230,6.0,11.0,69,0.00,,,0.00,0,Wunderground v.1.15,2013-01-25 08:41:00,
2013-01-25 02:44:00,20.7,12.1,30.17,SW,236,7.0,11.0,69,0.00,,,0.00,0,Wunderground v.1.15,2013-01-25 08:44:00,
2013-01-25 02:49:00,20.6,12.0,30.18,SW,232,8.0,11.0,69,0.00,,,0.00,0,Wunderground v.1.15,2013-01-25 08:49:00,
2013-01-25 02:51:00,20.6,12.4,30.19,WSW,242,5.0,9.0,70,0.00,,,0.00,0,Wunderground v.1.15,2013-01-25 08:51:00,
2013-01-25 02:54:00,20.4,12.2,30.18,WSW,237,5.0,9.0,70,0.00,,,0.00,0,Wunderground v.1.15,2013-01-25 08:54:00,
2013-01-25 02:56:00,20.3,12.1,30.18,SW,228,6.0,9.0,70,0.00,,,0.00,0,Wunderground v.1.15,2013-01-25 08:56:00,
2013-01-25 02:58:00,20.1,11.9,30.18,WSW,240,5.0,9.0,70,0.00,,,0.00,0,Wunderground v.1.15,2013-01-25 08:58:00,
2013-01-25 03:00:00,20.0,11.8,30.18,SW,228,6.0,6.0,70,0.00,,,0.00,0,Wunderground v.1.15,2013-01-25 09:00:00,
2013-01-25 03:01:00,19.8,11.9,30.18,WSW,238,4.0,6.0,71,0.00,,,0.00,0,Wunderground v.1.15,2013-01-25 09:01:00,
2013-01-25 03:05:00,19.6,11.7,30.18,WSW,239,4.0,6.0,71,0.00,,,0.00,0,Wunderground v.1.15,2013-01-25 09:05:00,
2013-01-25 03:07:00,19.4,11.5,30.18,WSW,238,3.0,6.0,71,0.00,,,0.00,0,Wunderground v.1.15,2013-01-25 09:07:00,
2013-01-25 03:10:00,19.0,11.5,30.18,WSW,238,4.0,4.0,72,0.00,,,0.00,0,Wunderground v.1.15,2013-01-25 09:10:00,
2013-01-25 03:13:00,18.8,11.6,30.18,WSW,239,2.0,5.0,73,0.00,,,0.00,0,Wunderground v.1.15,2013-01-25 09:13:00,
2013-01-25 03:15:00,18.6,11.4,30.18,WSW,239,3.0,5.0,73,0.00,,,0.00,0,Wunderground v.1.15,2013-01-25 09:15:00,
2013-01-25 03:18:00,18.4,11.2,30.17,WSW,239,3.0,5.0,73,0.00,,,0.00,0,Wunderground v.1.15,2013-01-25 09:18:00,
2013-01-25 03:19:00,18.3,11.4,30.17,WSW,239,3.0,5.0,74,0.00,,,0.00,0,Wunderground v.1.15,2013-01-25 09:19:00,
2013-01-25 03:21:00,18.1,11.2,30.17,WSW,239,2.0,3.0,74,0.00,,,0.00,0,Wunderground v.1.15,2013-01-25 09:21:00,
2013-01-25 03:23:00,18.0,11.1,30.17,WSW,239,1.0,3.0,74,0.00,,,0.00,0,Wunderground v.1.15,2013-01-25 09:23:00,
2013-01-25 03:25:00,17.8,11.2,30.17,WSW,239,0.0,3.0,75,0.00,,,0.00,0,Wunderground v.1.15,2013-01-25 09:25:00,
2013-01-25 03:26:00,17.7,11.1,30.17,WSW,239,0.0,3.0,75,0.00,,,0.00,0,Wunderground v.1.15,2013-01-25 09:26:00,
2013-01-25 03:27:00,17.7,11.1,30.17,WSW,239,0.0,3.0,75,0.00,,,0.00,0,Wunderground v.1.15,2013-01-25 09:27:00,
2013-01-25 03:29:00,17.5,10.9,30.17,WSW,239,1.0,3.0,75,0.00,,,0.00,0,Wunderground v.1.15,2013-01-25 09:29:00,
2013-01-25 03:31:00,17.5,10.9,30.17,WSW,239,2.0,2.0,75,0.00,,,0.00,0,Wunderground v.1.15,2013-01-25 09:31:00,
2013-01-25 03:32:00,17.4,10.8,30.17,WSW,239,2.0,2.0,75,0.00,,,0.00,0,Wunderground v.1.15,2013-01-25 09:32:00,
2013-01-25 03:34:00,17.3,11.0,30.17,WSW,239,1.0,3.0,76,0.00,,,0.00,0,Wunderground v.1.15,2013-01-25 09:34:00,
2013-01-25 03:35:00,17.2,10.9,30.17,WSW,239,2.0,3.0,76,0.00,,,0.00,0,Wunderground v.1.15,2013-01-25 09:35:00,
2013-01-25 03:36:00,17.1,10.8,30.17,WSW,239,1.0,3.0,76,0.00,,,0.00,0,Wunderground v.1.15,2013-01-25 09:36:00,
2013-01-25 03:38:00,16.9,10.6,30.17,WSW,239,1.0,3.0,76,0.00,,,0.00,0,Wunderground v.1.15,2013-01-25 09:38:00,
2013-01-25 03:39:00,16.8,10.5,30.17,WSW,239,1.0,3.0,76,0.00,,,0.00,0,Wunderground v.1.15,2013-01-25 09:39:00,
2013-01-25 03:42:00,16.6,10.6,30.17,WSW,239,2.0,2.0,77,0.00,,,0.00,0,Wunderground v.1.15,2013-01-25 09:42:00,
2013-01-25 03:43:00,16.6,10.6,30.17,WSW,239,2.0,3.0,77,0.00,,,0.00,0,Wunderground v.1.15,2013-01-25 09:43:00,
2013-01-25 03:45:00,16.6,10.9,30.16,WSW,239,3.0,3.0,78,0.00,,,0.00,0,Wunderground v.1.15,2013-01-25 09:45:00,
2013-01-25 03:47:00,16.7,11.0,30.17,WSW,239,2.0,3.0,78,0.00,,,0.00,0,Wunderground v.1.15,2013-01-25 09:47:00,
2013-01-25 03:48:00,16.8,11.1,30.16,WSW,239,2.0,3.0,78,0.00,,,0.00,0,Wunderground v.1.15,2013-01-25 09:48:00,
2013-01-25 03:50:00,16.9,11.2,30.16,WSW,239,2.0,2.0,78,0.00,,,0.00,0,Wunderground v.1.15,2013-01-25 09:50:00,
2013-01-25 03:52:00,16.9,11.2,30.16,WSW,239,2.0,3.0,78,0.00,,,0.00,0,Wunderground v.1.15,2013-01-25 09:52:00,
2013-01-25 03:54:00,16.9,11.2,30.16,WSW,239,1.0,3.0,78,0.00,,,0.00,0,Wunderground v.1.15,2013-01-25 09:54:00,
2013-01-25 03:55:00,16.7,11.0,30.16,WSW,239,2.0,3.0,78,0.00,,,0.00,0,Wunderground v.1.15,2013-01-25 09:55:00,
2013-01-25 03:57:00,16.5,10.5,30.16,WSW,239,1.0,3.0,77,0.00,,,0.00,0,Wunderground v.1.15,2013-01-25 09:57:00,
2013-01-25 03:58:00,16.3,10.6,30.16,WSW,239,0.0,3.0,78,0.00,,,0.00,0,Wunderground v.1.15,2013-01-25 09:58:00,
2013-01-25 03:59:00,16.2,10.5,30.16,WSW,239,0.0,3.0,78,0.00,,,0.00,0,Wunderground v.1.15,2013-01-25 09:59:00,
2013-01-25 04:00:00,15.9,10.3,30.16,WSW,239,0.0,2.0,78,0.00,,,0.00,0,Wunderground v.1.15,2013-01-25 10:00:00,
2013-01-25 04:03:00,15.5,9.9,30.15,WSW,239,2.0,2.0,78,0.00,,,0.00,0,Wunderground v.1.15,2013-01-25 10:03:00,
2013-01-25 04:04:00,15.3,10.0,30.15,WSW,239,0.0,2.0,79,0.00,,,0.00,0,Wunderground v.1.15,2013-01-25 10:04:00,
2013-01-25 04:09:00,14.9,9.8,30.15,WSW,239,0.0,2.0,80,0.00,,,0.00,0,Wunderground v.1.15,2013-01-25 10:09:00,
2013-01-25 04:11:00,14.9,9.8,30.15,WSW,239,0.0,1.0,80,0.00,,,0.00,0,Wunderground v.1.15,2013-01-25 10:11:00,
2013-01-25 04:12:00,14.9,10.1,30.15,WSW,239,0.0,1.0,81,0.00,,,0.00,0,Wunderground v.1.15,2013-01-25 10:12:00,
2013-01-25 04:15:00,15.0,10.2,30.15,WSW,239,0.0,1.0,81,0.00,,,0.00,0,Wunderground v.1.15,2013-01-25 10:15:00,
2013-01-25 04:16:00,15.0,10.2,30.15,WSW,239,0.0,1.0,81,0.00,,,0.00,0,Wunderground v.1.15,2013-01-25 10:16:00,
2013-01-25 04:17:00,15.0,10.2,30.14,WSW,239,1.0,1.0,81,0.00,,,0.00,0,Wunderground v.1.15,2013-01-25 10:17:00,
2013-01-25 04:20:00,15.0,10.2,30.14,WSW,239,1.0,1.0,81,0.00,,,0.00,0,Wunderground v.1.15,2013-01-25 10:20:00,
2013-01-25 04:22:00,15.1,10.3,30.14,WSW,239,2.0,2.0,81,0.00,,,0.00,0,Wunderground v.1.15,2013-01-25 10:22:00,
2013-01-25 04:23:00,15.1,10.3,30.14,WSW,238,2.0,2.0,81,0.00,,,0.00,0,Wunderground v.1.15,2013-01-25 10:23:00,
2013-01-25 04:26:00,15.2,10.4,30.14,SW,229,1.0,3.0,81,0.00,,,0.00,0,Wunderground v.1.15,2013-01-25 10:26:00,
2013-01-25 04:27:00,15.2,10.4,30.14,SW,228,2.0,3.0,81,0.00,,,0.00,0,Wunderground v.1.15,2013-01-25 10:27:00,
2013-01-25 04:30:00,15.3,10.8,30.14,SW,227,2.0,3.0,82,0.00,,,0.00,0,Wunderground v.1.15,2013-01-25 10:30:00,
2013-01-25 04:31:00,15.4,10.9,30.14,SW,227,1.0,2.0,82,0.00,,,0.00,0,Wunderground v.1.15,2013-01-25 10:31:00,
2013-01-25 04:34:00,15.4,10.6,30.14,SW,227,1.0,2.0,81,0.00,,,0.00,0,Wunderground v.1.15,2013-01-25 10:34:00,
2013-01-25 04:36:00,15.3,10.5,30.14,SW,227,2.0,2.0,81,0.00,,,0.00,0,Wunderground v.1.15,2013-01-25 10:36:00,
2013-01-25 04:37:00,15.3,10.5,30.14,SW,227,1.0,2.0,81,0.00,,,0.00,0,Wunderground v.1.15,2013-01-25 10:37:00,
2013-01-25 04:41:00,15.3,10.8,30.14,SW,227,1.0,2.0,82,0.00,,,0.00,0,Wunderground v.1.15,2013-01-25 10:41:00,
2013-01-25 04:42:00,15.2,10.7,30.14,SW,227,2.0,2.0,82,0.00,,,0.00,0,Wunderground v.1.15,2013-01-25 10:42:00,
2013-01-25 04:44:00,15.2,10.7,30.14,SW,227,2.0,2.0,82,0.00,,,0.00,0,Wunderground v.1.15,2013-01-25 10:44:00,
2013-01-25 04:47:00,15.0,10.5,30.13,SW,227,0.0,2.0,82,0.00,,,0.00,0,Wunderground v.1.15,2013-01-25 10:47:00,
2013-01-25 04:49:00,14.8,10.3,30.13,SW,227,0.0,2.0,82,0.00,,,0.00,0,Wunderground v.1.15,2013-01-25 10:49:00,
2013-01-25 04:50:00,14.6,10.1,30.13,SW,227,0.0,1.0,82,0.00,,,0.00,0,Wunderground v.1.15,2013-01-25 10:50:00,
2013-01-25 04:53:00,14.3,9.8,30.13,SW,227,0.0,2.0,82,0.00,,,0.00,0,Wunderground v.1.15,2013-01-25 10:53:00,
2013-01-25 04:54:00,14.3,9.8,30.13,SW,227,0.0,2.0,82,0.00,,,0.00,0,Wunderground v.1.15,2013-01-25 10:54:00,
2013-01-25 04:55:00,14.2,9.7,30.13,SW,227,0.0,2.0,82,0.00,,,0.00,0,Wunderground v.1.15,2013-01-25 10:55:00,
2013-01-25 04:56:00,14.1,9.6,30.13,SW,227,0.0,2.0,82,0.00,,,0.00,0,Wunderground v.1.15,2013-01-25 10:56:00,
2013-01-25 05:00:00,13.7,9.5,30.13,SW,227,0.0,0.0,83,0.00,,,0.00,0,Wunderground v.1.15,2013-01-25 11:00:00,
2013-01-25 05:01:00,13.6,9.4,30.13,SW,227,0.0,0.0,83,0.00,,,0.00,0,Wunderground v.1.15,2013-01-25 11:01:00,
2013-01-25 05:02:00,13.6,9.4,30.13,SW,227,0.0,0.0,83,0.00,,,0.00,0,Wunderground v.1.15,2013-01-25 11:02:00,
2013-01-25 05:06:00,13.4,9.2,30.13,SW,227,0.0,0.0,83,0.00,,,0.00,0,Wunderground v.1.15,2013-01-25 11:06:00,
2013-01-25 05:07:00,13.5,9.6,30.14,SW,227,0.0,0.0,84,0.00,,,0.00,0,Wunderground v.1.15,2013-01-25 11:07:00,
2013-01-25 05:11:00,13.5,9.6,30.14,SW,227,0.0,0.0,84,0.00,,,0.00,0,Wunderground v.1.15,2013-01-25 11:11:00,
2013-01-25 05:12:00,13.4,9.5,30.14,SW,227,0.0,0.0,84,0.00,,,0.00,0,Wunderground v.1.15,2013-01-25 11:12:00,
2013-01-25 05:13:00,13.4,9.5,30.13,SW,227,0.0,0.0,84,0.00,,,0.00,0,Wunderground v.1.15,2013-01-25 11:13:00,
2013-01-25 05:18:00,12.8,8.9,30.13,SW,227,0.0,0.0,84,0.00,,,0.00,0,Wunderground v.1.15,2013-01-25 11:18:00,
2013-01-25 05:21:00,12.7,8.8,30.13,SW,227,0.0,1.0,84,0.00,,,0.00,0,Wunderground v.1.15,2013-01-25 11:21:00,
2013-01-25 05:23:00,12.6,8.7,30.13,SW,227,0.0,1.0,84,0.00,,,0.00,0,Wunderground v.1.15,2013-01-25 11:23:00,
2013-01-25 05:25:00,12.7,9.0,30.13,SW,227,0.0,1.0,85,0.00,,,0.00,0,Wunderground v.1.15,2013-01-25 11:25:00,
2013-01-25 05:26:00,12.7,9.0,30.13,SW,227,0.0,1.0,85,0.00,,,0.00,0,Wunderground v.1.15,2013-01-25 11:26:00,
2013-01-25 05:29:00,12.9,9.2,30.13,SW,227,0.0,1.0,85,0.00,,,0.00,0,Wunderground v.1.15,2013-01-25 11:29:00,
2013-01-25 05:31:00,12.8,9.1,30.13,SW,227,0.0,0.0,85,0.00,,,0.00,0,Wunderground v.1.15,2013-01-25 11:31:00,
2013-01-25 05:32:00,12.8,9.1,30.13,SW,227,1.0,2.0,85,0.00,,,0.00,0,Wunderground v.1.15,2013-01-25 11:32:00,
2013-01-25 05:34:00,12.8,9.1,30.13,SW,227,1.0,2.0,85,0.00,,,0.00,0,Wunderground v.1.15,2013-01-25 11:34:00,
2013-01-25 05:36:00,12.7,9.0,30.12,SW,227,0.0,2.0,85,0.00,,,0.00,0,Wunderground v.1.15,2013-01-25 11:36:00,
2013-01-25 05:38:00,12.6,8.9,30.12,SW,227,0.0,2.0,85,0.00,,,0.00,0,Wunderground v.1.15,2013-01-25 11:38:00,
2013-01-25 05:39:00,12.6,8.9,30.12,SW,227,0.0,2.0,85,0.00,,,0.00,0,Wunderground v.1.15,2013-01-25 11:39:00,
2013-01-25 05:41:00,12.6,8.9,30.13,SW,227,0.0,0.0,85,0.00,,,0.00,0,Wunderground v.1.15,2013-01-25 11:41:00,
2013-01-25 05:44:00,12.8,9.4,30.12,SW,227,0.0,0.0,86,0.00,,,0.00,0,Wunderground v.1.15,2013-01-25 11:44:00,
2013-01-25 05:45:00,12.8,9.4,30.12,SW,227,0.0,0.0,86,0.00,,,0.00,0,Wunderground v.1.15,2013-01-25 11:45:00,
2013-01-25 05:46:00,12.8,9.4,30.12,SW,227,0.0,0.0,86,0.00,,,0.00,0,Wunderground v.1.15,2013-01-25 11:46:00,
2013-01-25 05:49:00,13.0,9.6,30.12,SW,227,0.0,0.0,86,0.00,,,0.00,0,Wunderground v.1.15,2013-01-25 11:49:00,
2013-01-25 05:50:00,13.0,9.6,30.12,SW,227,0.0,0.0,86,0.00,,,0.00,0,Wunderground v.1.15,2013-01-25 11:50:00,
2013-01-25 05:52:00,13.0,9.6,30.12,SW,227,0.0,0.0,86,0.00,,,0.00,0,Wunderground v.1.15,2013-01-25 11:52:00,
2013-01-25 05:55:00,12.9,9.5,30.12,SW,227,0.0,0.0,86,0.00,,,0.00,0,Wunderground v.1.15,2013-01-25 11:55:00,
2013-01-25 05:57:00,12.9,9.5,30.13,SW,227,0.0,0.0,86,0.00,,,0.00,0,Wunderground v.1.15,2013-01-25 11:57:00,
2013-01-25 06:01:00,12.8,9.1,30.13,SW,227,0.0,0.0,85,0.00,,,0.00,0,Wunderground v.1.15,2013-01-25 12:01:00,
2013-01-25 06:02:00,12.8,9.1,30.13,SW,227,0.0,0.0,85,0.00,,,0.00,0,Wunderground v.1.15,2013-01-25 12:02:00,
2013-01-25 06:03:00,12.8,9.4,30.13,SW,227,0.0,0.0,86,0.00,,,0.00,0,Wunderground v.1.15,2013-01-25 12:03:00,
2013-01-25 06:07:00,12.7,9.3,30.13,SW,227,0.0,0.0,86,0.00,,,0.00,0,Wunderground v.1.15,2013-01-25 12:07:00,
2013-01-25 06:08:00,12.7,9.3,30.13,SW,227,0.0,0.0,86,0.00,,,0.00,0,Wunderground v.1.15,2013-01-25 12:08:00,
2013-01-25 06:09:00,12.7,9.3,30.13,SW,227,0.0,0.0,86,0.00,,,0.00,0,Wunderground v.1.15,2013-01-25 12:09:00,
2013-01-25 06:12:00,12.7,9.3,30.13,SW,227,0.0,0.0,86,0.00,,,0.00,0,Wunderground v.1.15,2013-01-25 12:12:00,
2013-01-25 06:13:00,12.7,9.3,30.13,SW,227,0.0,0.0,86,0.00,,,0.00,0,Wunderground v.1.15,2013-01-25 12:13:00,
2013-01-25 06:14:00,12.6,9.2,30.13,SW,227,0.0,0.0,86,0.00,,,0.00,0,Wunderground v.1.15,2013-01-25 12:14:00,
2013-01-25 06:15:00,12.6,9.2,30.13,SW,227,0.0,0.0,86,0.00,,,0.00,0,Wunderground v.1.15,2013-01-25 12:15:00,
2013-01-25 06:18:00,12.4,9.0,30.13,SW,227,0.0,0.0,86,0.00,,,0.00,0,Wunderground v.1.15,2013-01-25 12:18:00,
2013-01-25 06:19:00,12.3,8.9,30.13,SW,227,0.0,0.0,86,0.00,,,0.00,0,Wunderground v.1.15,2013-01-25 12:19:00,
2013-01-25 06:20:00,12.3,8.9,30.13,SW,227,0.0,0.0,86,0.00,,,0.00,0,Wunderground v.1.15,2013-01-25 12:20:00,
2013-01-25 06:21:00,12.3,8.9,30.13,SW,227,0.0,2.0,86,0.00,,,0.00,0,Wunderground v.1.15,2013-01-25 12:21:00,
2013-01-25 06:23:00,12.3,8.9,30.13,SW,227,0.0,2.0,86,0.00,,,0.00,0,Wunderground v.1.15,2013-01-25 12:23:00,
2013-01-25 06:25:00,12.2,8.8,30.13,SW,227,0.0,2.0,86,0.00,,,0.00,0,Wunderground v.1.15,2013-01-25 12:25:00,
2013-01-25 06:26:00,12.2,8.8,30.13,SW,227,0.0,2.0,86,0.00,,,0.00,0,Wunderground v.1.15,2013-01-25 12:26:00,
2013-01-25 06:30:00,12.3,9.2,30.13,SW,227,0.0,0.0,87,0.00,,,0.00,0,Wunderground v.1.15,2013-01-25 12:30:00,
2013-01-25 06:31:00,12.3,9.2,30.13,SW,227,0.0,0.0,87,0.00,,,0.00,0,Wunderground v.1.15,2013-01-25 12:31:00,
2013-01-25 06:32:00,12.3,9.2,30.13,SW,227,1.0,1.0,87,0.00,,,0.00,0,Wunderground v.1.15,2013-01-25 12:32:00,
2013-01-25 06:35:00,12.5,9.4,30.13,SW,227,1.0,3.0,87,0.00,,,0.00,0,Wunderground v.1.15,2013-01-25 12:35:00,
2013-01-25 06:36:00,12.5,9.4,30.13,SW,225,2.0,3.0,87,0.00,,,0.00,0,Wunderground v.1.15,2013-01-25 12:36:00,
2013-01-25 06:37:00,12.5,9.4,30.13,SW,224,2.0,3.0,87,0.00,,,0.00,0,Wunderground v.1.15,2013-01-25 12:37:00,
2013-01-25 06:39:00,12.6,9.5,30.13,SSW,213,1.0,3.0,87,0.00,,,0.00,0,Wunderground v.1.15,2013-01-25 12:39:00,
2013-01-25 06:41:00,12.7,9.6,30.13,SSW,211,2.0,3.0,87,0.00,,,0.00,0,Wunderground v.1.15,2013-01-25 12:41:00,
2013-01-25 06:42:00,12.7,9.6,30.13,SSW,211,3.0,3.0,87,0.00,,,0.00,0,Wunderground v.1.15,2013-01-25 12:42:00,
2013-01-25 06:44:00,12.8,9.7,30.13,SSW,211,2.0,3.0,87,0.00,,,0.00,0,Wunderground v.1.15,2013-01-25 12:44:00,
2013-01-25 06:46:00,12.8,9.7,30.13,SSW,211,2.0,3.0,87,0.00,,,0.00,0,Wunderground v.1.15,2013-01-25 12:46:00,
2013-01-25 06:47:00,12.8,9.7,30.13,SSW,211,2.0,3.0,87,0.00,,,0.00,0,Wunderground v.1.15,2013-01-25 12:47:00,
2013-01-25 06:48:00,12.8,9.7,30.13,SSW,210,1.0,3.0,87,0.00,,,0.00,0,Wunderground v.1.15,2013-01-25 12:48:00,
2013-01-25 06:51:00,12.9,9.8,30.13,SSW,210,2.0,2.0,87,0.00,,,0.00,0,Wunderground v.1.15,2013-01-25 12:51:00,
2013-01-25 06:52:00,12.9,9.8,30.13,SSW,210,1.0,2.0,87,0.00,,,0.00,0,Wunderground v.1.15,2013-01-25 12:52:00,
2013-01-25 06:54:00,12.9,9.8,30.13,SSW,210,2.0,3.0,87,0.00,,,0.00,0,Wunderground v.1.15,2013-01-25 12:54:00,
2013-01-25 06:56:00,12.9,9.8,30.13,SSW,209,1.0,3.0,87,0.00,,,0.00,0,Wunderground v.1.15,2013-01-25 12:56:00,
2013-01-25 06:57:00,12.8,9.7,30.13,SSW,209,1.0,3.0,87,0.00,,,0.00,0,Wunderground v.1.15,2013-01-25 12:57:00,
2013-01-25 06:59:00,12.9,9.8,30.13,SSW,209,2.0,3.0,87,0.00,,,0.00,0,Wunderground v.1.15,2013-01-25 12:59:00,
2013-01-25 07:01:00,12.9,9.8,30.13,SSW,208,2.0,2.0,87,0.00,,,0.00,0,Wunderground v.1.15,2013-01-25 13:01:00,
2013-01-25 07:03:00,12.9,9.8,30.13,SSW,208,2.0,3.0,87,0.00,,,0.00,0,Wunderground v.1.15,2013-01-25 13:03:00,
2013-01-25 07:05:00,13.0,9.9,30.13,SSW,208,2.0,3.0,87,0.00,,,0.00,0,Wunderground v.1.15,2013-01-25 13:05:00,
2013-01-25 07:06:00,13.0,9.9,30.13,SSW,208,2.0,3.0,87,0.00,,,0.00,0,Wunderground v.1.15,2013-01-25 13:06:00,
2013-01-25 07:08:00,13.0,9.9,30.13,SSW,208,0.0,3.0,87,0.00,,,0.00,0,Wunderground v.1.15,2013-01-25 13:08:00,
2013-01-25 07:10:00,13.0,9.9,30.13,SSW,208,1.0,1.0,87,0.00,,,0.00,0,Wunderground v.1.15,2013-01-25 13:10:00,
2013-01-25 07:11:00,13.0,9.9,30.13,SSW,208,1.0,2.0,87,0.00,,,0.00,0,Wunderground v.1.15,2013-01-25 13:11:00,
2013-01-25 07:12:00,13.0,9.9,30.13,SSW,208,3.0,3.0,87,0.00,,,0.00,0,Wunderground v.1.15,2013-01-25 13:12:00,
2013-01-25 07:13:00,13.0,9.9,30.13,SSW,208,2.0,3.0,87,0.00,,,0.00,0,Wunderground v.1.15,2013-01-25 13:13:00,
2013-01-25 07:15:00,13.0,9.9,30.13,SSW,208,2.0,3.0,87,0.00,,,0.00,0,Wunderground v.1.15,2013-01-25 13:15:00,
2013-01-25 07:17:00,13.0,9.9,30.13,SSW,208,2.0,3.0,87,0.00,,,0.00,0,Wunderground v.1.15,2013-01-25 13:17:00,
2013-01-25 07:19:00,13.0,9.9,30.13,SSW,208,1.0,3.0,87,0.00,,,0.00,0,Wunderground v.1.15,2013-01-25 13:19:00,
2013-01-25 07:21:00,13.0,9.9,30.13,SSW,208,1.0,2.0,87,0.00,,,0.00,0,Wunderground v.1.15,2013-01-25 13:21:00,
2013-01-25 07:22:00,13.0,9.9,30.13,SSW,208,1.0,2.0,87,0.00,,,0.00,0,Wunderground v.1.15,2013-01-25 13:22:00,
2013-01-25 07:24:00,13.0,9.9,30.13,SSW,207,2.0,3.0,87,0.00,,,0.00,0,Wunderground v.1.15,2013-01-25 13:24:00,
2013-01-25 07:26:00,13.0,9.9,30.12,SSW,207,0.0,3.0,87,0.00,,,0.00,0,Wunderground v.1.15,2013-01-25 13:26:00,
2013-01-25 07:27:00,13.0,9.9,30.12,SSW,207,1.0,3.0,87,0.00,,,0.00,0,Wunderground v.1.15,2013-01-25 13:27:00,
2013-01-25 07:29:00,13.0,9.9,30.12,SSW,207,2.0,3.0,87,0.00,,,0.00,0,Wunderground v.1.15,2013-01-25 13:29:00,
2013-01-25 07:32:00,13.0,9.9,30.12,SSW,207,3.0,3.0,87,0.00,,,0.00,5,Wunderground v.1.15,2013-01-25 13:32:00,
2013-01-25 07:33:00,13.0,9.9,30.12,SSW,207,3.0,3.0,87,0.00,,,0.00,5,Wunderground v.1.15,2013-01-25 13:33:00,
2013-01-25 07:35:00,13.1,10.0,30.12,SSW,206,2.0,4.0,87,0.00,,,0.00,5,Wunderground v.1.15,2013-01-25 13:35:00,
2013-01-25 07:37:00,13.1,10.0,30.12,SSW,202,3.0,4.0,87,0.00,,,0.00,7,Wunderground v.1.15,2013-01-25 13:37:00,
2013-01-25 07:39:00,13.1,10.0,30.12,SSW,197,2.0,4.0,87,0.00,,,0.00,9,Wunderground v.1.15,2013-01-25 13:39:00,
2013-01-25 07:40:00,13.1,10.0,30.12,SSW,196,2.0,3.0,87,0.00,,,0.00,9,Wunderground v.1.15,2013-01-25 13:40:00,
2013-01-25 07:41:00,13.1,10.0,30.12,SSW,194,1.0,3.0,87,0.00,,,0.00,9,Wunderground v.1.15,2013-01-25 13:41:00,
2013-01-25 07:43:00,13.2,10.1,30.12,South,188,3.0,4.0,87,0.00,,,0.00,11,Wunderground v.1.15,2013-01-25 13:43:00,
2013-01-25 07:44:00,13.2,10.1,30.11,South,186,3.0,4.0,87,0.00,,,0.00,11,Wunderground v.1.15,2013-01-25 13:44:00,
2013-01-25 07:45:00,13.2,10.1,30.11,South,183,4.0,4.0,87,0.00,,,0.00,12,Wunderground v.1.15,2013-01-25 13:45:00,
2013-01-25 07:49:00,13.4,10.3,30.11,South,190,3.0,5.0,87,0.00,,,0.00,14,Wunderground v.1.15,2013-01-25 13:49:00,
2013-01-25 07:50:00,13.4,10.3,30.11,SSW,192,3.0,3.0,87,0.00,,,0.00,14,Wunderground v.1.15,2013-01-25 13:50:00,
2013-01-25 07:51:00,13.5,10.1,30.11,SSW,196,3.0,4.0,86,0.00,,,0.00,16,Wunderground v.1.15,2013-01-25 13:51:00,
2013-01-25 07:54:00,13.5,10.1,30.11,SSW,194,4.0,5.0,86,0.00,,,0.00,18,Wunderground v.1.15,2013-01-25 13:54:00,
2013-01-25 07:55:00,13.5,10.1,30.11,SSW,194,3.0,5.0,86,0.00,,,0.00,19,Wunderground v.1.15,2013-01-25 13:55:00,
2013-01-25 07:56:00,13.5,10.1,30.11,SSW,194,3.0,5.0,86,0.00,,,0.00,19,Wunderground v.1.15,2013-01-25 13:56:00,
2013-01-25 07:57:00,13.6,10.2,30.11,SSW,194,3.0,5.0,86,0.00,,,0.00,19,Wunderground v.1.15,2013-01-25 13:57:00,
2013-01-25 08:00:00,13.7,10.3,30.11,SSW,192,3.0,3.0,86,0.00,,,0.00,25,Wunderground v.1.15,2013-01-25 14:00:00,
2013-01-25 08:03:00,14.0,10.6,30.11,SSW,195,4.0,6.0,86,0.00,,,0.00,30,Wunderground v.1.15,2013-01-25 14:03:00,
2013-01-25 08:05:00,14.2,10.8,30.11,SSW,199,5.0,6.0,86,0.00,,,0.00,35,Wunderground v.1.15,2013-01-25 14:05:00,
2013-01-25 08:07:00,14.3,10.9,30.11,SSW,200,3.0,6.0,86,0.00,,,0.00,39,Wunderground v.1.15,2013-01-25 14:07:00,
2013-01-25 08:08:00,14.4,11.0,30.11,SSW,202,4.0,6.0,86,0.00,,,0.00,42,Wunderground v.1.15,2013-01-25 14:08:00,
2013-01-25 08:09:00,14.5,11.1,30.11,SSW,203,4.0,6.0,86,0.00,,,0.00,44,Wunderground v.1.15,2013-01-25 14:09:00,
2013-01-25 08:11:00,14.6,11.2,30.11,SSW,204,3.0,5.0,86,0.00,,,0.00,47,Wunderground v.1.15,2013-01-25 14:11:00,
2013-01-25 08:12:00,14.8,11.4,30.11,SSW,206,4.0,5.0,86,0.00,,,0.00,51,Wunderground v.1.15,2013-01-25 14:12:00,
2013-01-25 08:15:00,15.1,11.7,30.11,SSW,213,4.0,6.0,86,0.00,,,0.00,58,Wunderground v.1.15,2013-01-25 14:15:00,
2013-01-25 08:16:00,15.2,11.5,30.11,SSW,211,4.0,6.0,85,0.00,,,0.00,60,Wunderground v.1.15,2013-01-25 14:16:00,
2013-01-25 08:18:00,15.5,11.8,30.11,SSW,210,5.0,6.0,85,0.00,,,0.00,63,Wunderground v.1.15,2013-01-25 14:18:00,
2013-01-25 08:20:00,15.9,12.2,30.11,SSW,211,3.0,4.0,85,0.00,,,0.00,69,Wunderground v.1.15,2013-01-25 14:20:00,
2013-01-25 08:21:00,15.9,12.2,30.11,SSW,213,7.0,7.0,85,0.00,,,0.00,72,Wunderground v.1.15,2013-01-25 14:21:00,
2013-01-25 08:23:00,16.2,12.2,30.11,SSW,212,5.0,7.0,84,0.00,,,0.00,77,Wunderground v.1.15,2013-01-25 14:23:00,
2013-01-25 08:24:00,16.3,12.3,30.11,SW,216,4.0,7.0,84,0.00,,,0.00,79,Wunderground v.1.15,2013-01-25 14:24:00,
2013-01-25 08:26:00,16.5,12.5,30.11,SW,217,3.0,7.0,84,0.00,,,0.00,83,Wunderground v.1.15,2013-01-25 14:26:00,
2013-01-25 08:27:00,16.6,12.3,30.11,SSW,213,3.0,7.0,83,0.00,,,0.00,86,Wunderground v.1.15,2013-01-25 14:27:00,
2013-01-25 08:28:00,16.8,12.5,30.11,SW,216,3.0,7.0,83,0.00,,,0.00,90,Wunderground v.1.15,2013-01-25 14:28:00,
2013-01-25 08:30:00,17.0,12.7,30.12,SW,225,5.0,5.0,83,0.00,,,0.00,95,Wunderground v.1.15,2013-01-25 14:30:00,
2013-01-25 08:32:00,17.3,13.0,30.12,SW,227,5.0,5.0,83,0.00,,,0.00,100,Wunderground v.1.15,2013-01-25 14:32:00,
2013-01-25 08:33:00,17.5,12.9,30.12,SW,232,6.0,6.0,82,0.00,,,0.00,102,Wunderground v.1.15,2013-01-25 14:33:00,
2013-01-25 08:37:00,18.0,13.4,30.12,SW,236,5.0,6.0,82,0.00,,,0.00,114,Wunderground v.1.15,2013-01-25 14:37:00,
2013-01-25 08:38:00,18.1,13.3,30.12,WSW,238,4.0,6.0,81,0.00,,,0.00,114,Wunderground v.1.15,2013-01-25 14:38:00,
2013-01-25 08:43:00,19.3,14.1,30.12,WSW,242,7.0,8.0,80,0.00,,,0.00,130,Wunderground v.1.15,2013-01-25 14:43:00,
2013-01-25 08:44:00,19.5,14.3,30.12,WSW,248,6.0,8.0,80,0.00,,,0.00,132,Wunderground v.1.15,2013-01-25 14:44:00,
2013-01-25 08:46:00,19.9,14.4,30.12,WSW,258,8.0,9.0,79,0.00,,,0.00,139,Wunderground v.1.15,2013-01-25 14:46:00,
2013-01-25 08:48:00,20.4,14.3,30.12,WSW,250,7.0,10.0,77,0.00,,,0.00,142,Wunderground v.1.15,2013-01-25 14:48:00,
2013-01-25 08:49:00,20.7,14.6,30.13,WSW,256,6.0,10.0,77,0.00,,,0.00,146,Wunderground v.1.15,2013-01-25 14:49:00,
2013-01-25 08:50:00,20.9,14.5,30.13,WSW,248,8.0,8.0,76,0.00,,,0.00,148,Wunderground v.1.15,2013-01-25 14:50:00,
2013-01-25 08:53:00,21.2,14.5,30.12,WSW,248,8.0,11.0,75,0.00,,,0.00,155,Wunderground v.1.15,2013-01-25 14:53:00,
2013-01-25 08:54:00,21.3,14.6,30.12,WSW,257,7.0,11.0,75,0.00,,,0.00,156,Wunderground v.1.15,2013-01-25 14:54:00,
2013-01-25 08:57:00,21.6,14.6,30.12,West,263,6.0,11.0,74,0.00,,,0.00,163,Wunderground v.1.15,2013-01-25 14:57:00,
2013-01-25 08:58:00,21.8,15.1,30.13,West,281,9.0,11.0,75,0.00,,,0.00,169,Wunderground v.1.15,2013-01-25 14:58:00,
2013-01-25 09:00:00,21.9,14.9,30.13,West,267,12.0,12.0,74,0.00,,,0.00,174,Wunderground v.1.15,2013-01-25 15:00:00,
2013-01-25 09:03:00,22.2,14.9,30.13,WSW,257,10.0,12.0,73,0.00,,,0.00,185,Wunderground v.1.15,2013-01-25 15:03:00,
2013-01-25 09:04:00,22.2,14.5,30.13,West,265,10.0,12.0,72,0.00,,,0.00,188,Wunderground v.1.15,2013-01-25 15:04:00,
2013-01-25 09:05:00,22.3,14.6,30.13,West,276,10.0,12.0,72,0.00,,,0.00,190,Wunderground v.1.15,2013-01-25 15:05:00,
2013-01-25 09:08:00,22.7,15.3,30.12,West,273,8.0,12.0,73,0.00,,,0.00,200,Wunderground v.1.15,2013-01-25 15:08:00,
2013-01-25 09:09:00,22.8,15.4,30.12,West,266,11.0,12.0,73,0.00,,,0.00,204,Wunderground v.1.15,2013-01-25 15:09:00,
2013-01-25 09:10:00,22.9,15.2,30.12,West,271,9.0,12.0,72,0.00,,,0.00,206,Wunderground v.1.15,2013-01-25 15:10:00,
2013-01-25 09:13:00,23.4,15.7,30.12,West,277,10.0,12.0,72,0.00,,,0.00,216,Wunderground v.1.15,2013-01-25 15:13:00,
2013-01-25 09:14:00,23.4,15.7,30.12,West,277,8.0,12.0,72,0.00,,,0.00,220,Wunderground v.1.15,2013-01-25 15:14:00,
2013-01-25 09:16:00,23.8,15.8,30.12,West,269,9.0,12.0,71,0.00,,,0.00,223,Wunderground v.1.15,2013-01-25 15:16:00,
2013-01-25 09:18:00,24.1,16.1,30.12,West,264,13.0,13.0,71,0.00,,,0.00,230,Wunderground v.1.15,2013-01-25 15:18:00,
2013-01-25 09:20:00,24.2,16.1,30.12,West,269,10.0,10.0,71,0.00,,,0.00,234,Wunderground v.1.15,2013-01-25 15:20:00,
2013-01-25 09:22:00,24.7,16.6,30.12,West,278,14.0,14.0,71,0.00,,,0.00,239,Wunderground v.1.15,2013-01-25 15:22:00,
2013-01-25 09:24:00,25.0,16.6,30.13,WNW,285,12.0,14.0,70,0.00,,,0.00,241,Wunderground v.1.15,2013-01-25 15:24:00,
2013-01-25 09:25:00,25.2,16.8,30.13,West,266,14.0,15.0,70,0.00,,,0.00,248,Wunderground v.1.15,2013-01-25 15:25:00,
2013-01-25 09:28:00,25.4,16.6,30.13,West,271,11.0,17.0,69,0.00,,,0.00,253,Wunderground v.1.15,2013-01-25 15:28:00,
2013-01-25 09:30:00,25.6,16.8,30.13,West,273,8.0,12.0,69,0.00,,,0.00,258,Wunderground v.1.15,2013-01-25 15:30:00,
2013-01-25 09:31:00,25.7,16.9,30.13,West,265,13.0,14.0,69,0.00,,,0.00,260,Wunderground v.1.15,2013-01-25 15:31:00,
2013-01-25 09:33:00,26.0,17.2,30.13,West,279,13.0,15.0,69,0.00,,,0.00,269,Wunderground v.1.15,2013-01-25 15:33:00,
2013-01-25 09:35:00,26.2,17.4,30.13,West,281,11.0,15.0,69,0.00,,,0.00,271,Wunderground v.1.15,2013-01-25 15:35:00,
2013-01-25 09:36:00,26.3,17.2,30.13,WNW,286,10.0,15.0,68,0.00,,,0.00,276,Wunderground v.1.15,2013-01-25 15:36:00,
2013-01-25 09:39:00,26.6,17.5,30.13,West,275,12.0,15.0,68,0.00,,,0.00,283,Wunderground v.1.15,2013-01-25 15:39:00,
2013-01-25 09:40:00,26.7,17.6,30.13,WNW,294,11.0,12.0,68,0.00,,,0.00,285,Wunderground v.1.15,2013-01-25 15:40:00,
2013-01-25 09:41:00,26.8,17.6,30.13,West,281,7.0,15.0,68,0.00,,,0.00,288,Wunderground v.1.15,2013-01-25 15:41:00,
2013-01-25 09:43:00,27.0,17.8,30.13,West,279,11.0,15.0,68,0.00,,,0.00,294,Wunderground v.1.15,2013-01-25 15:43:00,
2013-01-25 09:44:00,27.2,18.0,30.13,WNW,284,13.0,15.0,68,0.00,,,0.00,295,Wunderground v.1.15,2013-01-25 15:44:00,
2013-01-25 09:45:00,27.2,18.0,30.13,WNW,286,10.0,15.0,68,0.00,,,0.00,297,Wunderground v.1.15,2013-01-25 15:45:00,
2013-01-25 09:46:00,27.3,17.8,30.13,West,277,12.0,15.0,67,0.00,,,0.00,301,Wunderground v.1.15,2013-01-25 15:46:00,
2013-01-25 09:50:00,27.6,18.1,30.13,WNW,291,10.0,11.0,67,0.00,,,0.00,308,Wunderground v.1.15,2013-01-25 15:50:00,
2013-01-25 09:51:00,27.6,17.7,30.13,West,281,14.0,14.0,66,0.00,,,0.00,311,Wunderground v.1.15,2013-01-25 15:51:00,
2013-01-25 09:52:00,27.6,17.7,30.13,WNW,289,11.0,14.0,66,0.00,,,0.00,315,Wunderground v.1.15,2013-01-25 15:52:00,
2013-01-25 09:56:00,27.7,17.8,30.13,WNW,286,10.0,15.0,66,0.00,,,0.00,320,Wunderground v.1.15,2013-01-25 15:56:00,
2013-01-25 09:57:00,27.9,18.4,30.13,West,281,12.0,15.0,67,0.00,,,0.00,322,Wunderground v.1.15,2013-01-25 15:57:00,
2013-01-25 10:01:00,28.0,18.1,30.13,WNW,296,13.0,14.0,66,0.00,,,0.00,334,Wunderground v.1.15,2013-01-25 16:01:00,
2013-01-25 10:02:00,28.0,18.1,30.14,WNW,300,10.0,16.0,66,0.00,,,0.00,336,Wunderground v.1.15,2013-01-25 16:02:00,
2013-01-25 10:07:00,28.7,19.1,30.14,WNW,299,16.0,16.0,67,0.00,,,0.00,348,Wunderground v.1.15,2013-01-25 16:07:00,
2013-01-25 10:08:00,28.7,19.1,30.14,NW,315,12.0,18.0,67,0.00,,,0.00,348,Wunderground v.1.15,2013-01-25 16:08:00,
2013-01-25 10:09:00,28.9,19.3,30.13,WNW,291,15.0,18.0,67,0.00,,,0.00,353,Wunderground v.1.15,2013-01-25 16:09:00,
2013-01-25 10:12:00,29.1,19.5,30.14,WNW,296,17.0,17.0,67,0.00,,,0.00,359,Wunderground v.1.15,2013-01-25 16:12:00,
2013-01-25 10:13:00,29.2,19.6,30.14,WNW,297,17.0,17.0,67,0.00,,,0.00,360,Wunderground v.1.15,2013-01-25 16:13:00,
2013-01-25 10:15:00,29.3,19.7,30.14,WNW,294,17.0,17.0,67,0.00,,,0.00,364,Wunderground v.1.15,2013-01-25 16:15:00,
2013-01-25 10:18:00,29.6,20.0,30.14,WNW,300,17.0,17.0,67,0.00,,,0.00,369,Wunderground v.1.15,2013-01-25 16:18:00,
2013-01-25 10:19:00,29.6,20.0,30.14,NW,314,16.0,20.0,67,0.00,,,0.00,369,Wunderground v.1.15,2013-01-25 16:19:00,
2013-01-25 10:21:00,29.7,19.7,30.14,WNW,303,16.0,19.0,66,0.00,,,0.00,374,Wunderground v.1.15,2013-01-25 16:21:00,
2013-01-25 10:23:00,29.8,19.8,30.14,NW,309,16.0,19.0,66,0.00,,,0.00,380,Wunderground v.1.15,2013-01-25 16:23:00,
2013-01-25 10:24:00,29.9,19.9,30.14,WNW,297,15.0,19.0,66,0.00,,,0.00,380,Wunderground v.1.15,2013-01-25 16:24:00,
2013-01-25 10:27:00,29.9,19.9,30.14,NW,314,16.0,19.0,66,0.00,,,0.00,388,Wunderground v.1.15,2013-01-25 16:27:00,
2013-01-25 10:29:00,30.0,20.0,30.14,NW,306,15.0,19.0,66,0.00,,,0.00,390,Wunderground v.1.15,2013-01-25 16:29:00,
2013-01-25 10:32:00,30.2,20.2,30.14,NW,314,15.0,17.0,66,0.00,,,0.00,397,Wunderground v.1.15,2013-01-25 16:32:00,
2013-01-25 10:34:00,30.2,20.2,30.14,NW,306,17.0,19.0,66,0.00,,,0.00,401,Wunderground v.1.15,2013-01-25 16:34:00,
2013-01-25 10:35:00,30.2,20.2,30.14,WNW,296,16.0,19.0,66,0.00,,,0.00,404,Wunderground v.1.15,2013-01-25 16:35:00,
2013-01-25 10:37:00,30.3,20.3,30.14,WNW,292,18.0,21.0,66,0.00,,,0.00,408,Wunderground v.1.15,2013-01-25 16:37:00,
2013-01-25 10:40:00,30.3,20.3,30.14,NW,309,17.0,17.0,66,0.00,,,0.00,413,Wunderground v.1.15,2013-01-25 16:40:00,
2013-01-25 10:41:00,30.3,20.3,30.14,WNW,303,19.0,19.0,66,0.00,,,0.00,415,Wunderground v.1.15,2013-01-25 16:41:00,
2013-01-25 10:45:00,30.3,20.3,30.14,WNW,290,21.0,21.0,66,0.00,,,0.00,420,Wunderground v.1.15,2013-01-25 16:45:00,
2013-01-25 10:46:00,30.3,19.9,30.14,NW,309,16.0,21.0,65,0.00,,,0.00,422,Wunderground v.1.15,2013-01-25 16:46:00,
2013-01-25 10:50:00,30.3,20.3,30.15,WNW,299,21.0,21.0,66,0.00,,,0.00,425,Wunderground v.1.15,2013-01-25 16:50:00,
2013-01-25 10:51:00,30.3,20.3,30.15,WNW,302,19.0,21.0,66,0.00,,,0.00,431,Wunderground v.1.15,2013-01-25 16:51:00,
2013-01-25 10:52:00,30.2,20.2,30.15,WNW,289,17.0,21.0,66,0.00,,,0.00,431,Wunderground v.1.15,2013-01-25 16:52:00,
2013-01-25 10:53:00,30.3,20.3,30.15,NW,308,18.0,21.0,66,0.00,,,0.00,434,Wunderground v.1.15,2013-01-25 16:53:00,
2013-01-25 10:57:00,30.4,20.4,30.15,NW,311,17.0,21.0,66,0.00,,,0.00,439,Wunderground v.1.15,2013-01-25 16:57:00,
2013-01-25 10:58:00,30.5,20.8,30.15,NW,306,19.0,21.0,67,0.00,,,0.00,441,Wunderground v.1.15,2013-01-25 16:58:00,
2013-01-25 11:03:00,30.5,20.8,30.15,NW,306,18.0,22.0,67,0.00,,,0.00,448,Wunderground v.1.15,2013-01-25 17:03:00,
2013-01-25 11:04:00,30.6,20.9,30.15,WNW,302,17.0,22.0,67,0.00,,,0.00,448,Wunderground v.1.15,2013-01-25 17:04:00,
2013-01-25 11:05:00,30.7,21.0,30.15,WNW,302,16.0,22.0,67,0.00,,,0.00,452,Wunderground v.1.15,2013-01-25 17:05:00,
2013-01-25 11:09:00,30.9,20.9,30.14,NW,315,14.0,22.0,66,0.00,,,0.00,457,Wunderground v.1.15,2013-01-25 17:09:00,
2013-01-25 11:10:00,31.0,21.3,30.14,WNW,296,14.0,21.0,67,0.00,,,0.00,459,Wunderground v.1.15,2013-01-25 17:10:00,
2013-01-25 11:15:00,31.4,22.1,30.14,NW,306,18.0,21.0,68,0.00,,,0.00,466,Wunderground v.1.15,2013-01-25 17:15:00,
2013-01-25 11:16:00,31.6,21.9,30.14,NW,316,16.0,21.0,67,0.00,,,0.00,468,Wunderground v.1.15,2013-01-25 17:16:00,
2013-01-25 11:21:00,31.7,22.0,30.13,WNW,302,13.0,16.0,67,0.00,,,0.00,475,Wunderground v.1.15,2013-01-25 17:21:00,
2013-01-25 11:23:00,31.7,22.0,30.14,NW,316,12.0,18.0,67,0.00,,,0.00,476,Wunderground v.1.15,2013-01-25 17:23:00,
2013-01-25 11:24:00,31.8,22.1,30.14,NW,305,15.0,18.0,67,0.00,,,0.00,471,Wunderground v.1.15,2013-01-25 17:24:00,
2013-01-25 11:26:00,31.9,22.2,30.14,NW,315,15.0,18.0,67,0.00,,,0.00,480,Wunderground v.1.15,2013-01-25 17:26:00,
2013-01-25 11:27:00,31.9,22.2,30.14,NW,306,16.0,18.0,67,0.00,,,0.00,480,Wunderground v.1.15,2013-01-25 17:27:00,
2013-01-25 11:28:00,31.8,22.1,30.14,NW,311,13.0,18.0,67,0.00,,,0.00,480,Wunderground v.1.15,2013-01-25 17:28:00,
2013-01-25 11:31:00,31.9,22.5,30.14,NW,323,13.0,15.0,68,0.00,,,0.00,485,Wunderground v.1.15,2013-01-25 17:31:00,
2013-01-25 11:32:00,32.0,22.6,30.14,NW,325,14.0,16.0,68,0.00,,,0.00,485,Wunderground v.1.15,2013-01-25 17:32:00,
2013-01-25 11:33:00,32.1,22.7,30.14,NW,306,15.0,16.0,68,0.00,,,0.00,485,Wunderground v.1.15,2013-01-25 17:33:00,
2013-01-25 11:36:00,32.5,23.1,30.15,WNW,284,20.0,20.0,68,0.00,,,0.00,489,Wunderground v.1.15,2013-01-25 17:36:00,
2013-01-25 11:37:00,32.5,23.1,30.15,WNW,288,19.0,20.0,68,0.00,,,0.00,489,Wunderground v.1.15,2013-01-25 17:37:00,
2013-01-25 11:38:00,32.5,23.1,30.15,WNW,302,15.0,20.0,68,0.00,,,0.00,487,Wunderground v.1.15,2013-01-25 17:38:00,
2013-01-25 11:39:00,32.5,23.1,30.15,NW,308,18.0,20.0,68,0.00,,,0.00,487,Wunderground v.1.15,2013-01-25 17:39:00,
2013-01-25 11:44:00,32.6,23.2,30.15,WNW,302,14.0,21.0,68,0.00,,,0.00,490,Wunderground v.1.15,2013-01-25 17:44:00,
2013-01-25 11:45:00,32.6,23.6,30.15,WNW,290,16.0,21.0,69,0.00,,,0.00,489,Wunderground v.1.15,2013-01-25 17:45:00,
2013-01-25 11:50:00,32.7,24.0,30.15,WNW,300,18.0,21.0,70,0.00,,,0.00,497,Wunderground v.1.15,2013-01-25 17:50:00,
2013-01-25 11:51:00,32.7,24.0,30.15,NW,308,17.0,18.0,70,0.00,,,0.00,497,Wunderground v.1.15,2013-01-25 17:51:00,
2013-01-25 11:55:00,32.9,24.5,30.15,NW,305,19.0,19.0,71,0.00,,,0.00,492,Wunderground v.1.15,2013-01-25 17:55:00,
2013-01-25 11:56:00,32.9,24.5,30.15,NW,313,19.0,19.0,71,0.00,,,0.00,492,Wunderground v.1.15,2013-01-25 17:56:00,
2013-01-25 11:57:00,33.0,24.6,30.15,NW,315,15.0,19.0,71,0.00,,,0.00,492,Wunderground v.1.15,2013-01-25 17:57:00,
2013-01-25 12:01:00,33.0,24.6,30.14,WNW,298,23.0,23.0,71,0.00,,,0.00,494,Wunderground v.1.15,2013-01-25 18:01:00,
2013-01-25 12:03:00,32.9,24.5,30.15,WNW,303,22.0,24.0,71,0.00,,,0.00,499,Wunderground v.1.15,2013-01-25 18:03:00,
2013-01-25 12:08:00,33.0,25.0,30.14,WNW,291,19.0,24.0,72,0.00,,,0.00,508,Wunderground v.1.15,2013-01-25 18:08:00,
2013-01-25 12:11:00,33.0,24.6,30.14,NW,306,16.0,20.0,71,0.00,,,0.00,506,Wunderground v.1.15,2013-01-25 18:11:00,
2013-01-25 12:14:00,33.0,24.6,30.14,NW,309,16.0,21.0,71,0.00,,,0.00,506,Wunderground v.1.15,2013-01-25 18:14:00,
2013-01-25 12:16:00,33.3,25.2,30.14,WNW,302,22.0,22.0,72,0.00,,,0.00,512,Wunderground v.1.15,2013-01-25 18:16:00,
2013-01-25 12:17:00,33.4,25.0,30.13,NW,323,19.0,22.0,71,0.00,,,0.00,513,Wunderground v.1.15,2013-01-25 18:17:00,
2013-01-25 12:19:00,33.4,25.0,30.13,NW,304,14.0,22.0,71,0.00,,,0.00,508,Wunderground v.1.15,2013-01-25 18:19:00,
2013-01-25 12:20:00,33.4,25.0,30.14,NW,309,20.0,20.0,71,0.00,,,0.00,512,Wunderground v.1.15,2013-01-25 18:20:00,
2013-01-25 12:23:00,33.5,25.1,30.14,NW,310,13.0,20.0,71,0.00,,,0.00,506,Wunderground v.1.15,2013-01-25 18:23:00,
2013-01-25 12:25:00,33.6,25.2,30.14,NW,316,19.0,20.0,71,0.00,,,0.00,510,Wunderground v.1.15,2013-01-25 18:25:00,
2013-01-25 12:26:00,33.7,25.3,30.14,NW,305,18.0,20.0,71,0.00,,,0.00,512,Wunderground v.1.15,2013-01-25 18:26:00,
2013-01-25 12:29:00,33.9,25.8,30.14,WNW,298,18.0,21.0,72,0.00,,,0.00,512,Wunderground v.1.15,2013-01-25 18:29:00,
2013-01-25 12:32:00,34.2,25.8,30.13,NW,309,18.0,18.0,71,0.00,,,0.00,513,Wunderground v.1.15,2013-01-25 18:32:00,
2013-01-25 12:34:00,34.2,25.4,30.13,NW,319,16.0,19.0,70,0.00,,,0.00,513,Wunderground v.1.15,2013-01-25 18:34:00,
2013-01-25 12:36:00,34.3,25.5,30.13,WNW,302,18.0,19.0,70,0.00,,,0.00,517,Wunderground v.1.15,2013-01-25 18:36:00,
2013-01-25 12:38:00,34.4,26.0,30.13,WNW,300,19.0,19.0,71,0.00,,,0.00,513,Wunderground v.1.15,2013-01-25 18:38:00,
2013-01-25 12:39:00,34.5,25.7,30.13,WNW,298,18.0,21.0,70,0.00,,,0.00,512,Wunderground v.1.15,2013-01-25 18:39:00,
2013-01-25 12:40:00,34.6,25.8,30.14,WNW,303,17.0,17.0,70,0.00,,,0.00,512,Wunderground v.1.15,2013-01-25 18:40:00,
2013-01-25 12:41:00,34.6,25.8,30.13,WNW,299,16.0,17.0,70,0.00,,,0.00,512,Wunderground v.1.15,2013-01-25 18:41:00,
2013-01-25 12:43:00,34.7,25.9,30.13,NW,306,14.0,21.0,70,0.00,,,0.00,513,Wunderground v.1.15,2013-01-25 18:43:00,
2013-01-25 12:45:00,34.8,26.0,30.13,WNW,296,15.0,21.0,70,0.00,,,0.00,513,Wunderground v.1.15,2013-01-25 18:45:00,
2013-01-25 12:46:00,34.9,26.1,30.13,West,273,19.0,21.0,70,0.00,,,0.00,512,Wunderground v.1.15,2013-01-25 18:46:00,
2013-01-25 12:48:00,35.0,26.2,30.13,WNW,300,18.0,21.0,70,0.00,,,0.00,510,Wunderground v.1.15,2013-01-25 18:48:00,
2013-01-25 12:51:00,35.1,25.9,30.13,WNW,301,21.0,21.0,69,0.00,,,0.00,510,Wunderground v.1.15,2013-01-25 18:51:00,
2013-01-25 12:52:00,35.1,25.9,30.13,WNW,300,17.0,21.0,69,0.00,,,0.00,510,Wunderground v.1.15,2013-01-25 18:52:00,
2013-01-25 12:53:00,35.1,25.9,30.13,WNW,299,14.0,21.0,69,0.00,,,0.00,508,Wunderground v.1.15,2013-01-25 18:53:00,
2013-01-25 12:54:00,35.2,26.4,30.13,WNW,294,14.0,21.0,70,0.00,,,0.00,512,Wunderground v.1.15,2013-01-25 18:54:00,
2013-01-25 12:56:00,35.4,26.6,30.12,WNW,285,18.0,21.0,70,0.00,,,0.00,513,Wunderground v.1.15,2013-01-25 18:56:00,
2013-01-25 12:58:00,35.7,26.5,30.13,NW,309,19.0,21.0,69,0.00,,,0.00,504,Wunderground v.1.15,2013-01-25 18:58:00,
2013-01-25 12:59:00,35.8,26.6,30.13,WNW,303,17.0,21.0,69,0.00,,,0.00,506,Wunderground v.1.15,2013-01-25 18:59:00,
2013-01-25 13:00:00,35.8,26.6,30.13,NW,310,17.0,17.0,69,0.00,,,0.00,506,Wunderground v.1.15,2013-01-25 19:00:00,
2013-01-25 13:02:00,36.0,26.8,30.12,WNW,303,18.0,20.0,69,0.00,,,0.00,503,Wunderground v.1.15,2013-01-25 19:02:00,
2013-01-25 13:04:00,36.1,26.6,30.12,WNW,286,19.0,21.0,68,0.00,,,0.00,508,Wunderground v.1.15,2013-01-25 19:04:00,
2013-01-25 13:06:00,36.2,26.6,30.12,WNW,291,14.0,21.0,68,0.00,,,0.00,506,Wunderground v.1.15,2013-01-25 19:06:00,
2013-01-25 13:08:00,36.4,26.8,30.12,WNW,299,16.0,21.0,68,0.00,,,0.00,503,Wunderground v.1.15,2013-01-25 19:08:00,
2013-01-25 13:09:00,36.4,26.8,30.12,WNW,297,19.0,21.0,68,0.00,,,0.00,503,Wunderground v.1.15,2013-01-25 19:09:00,
2013-01-25 13:10:00,36.4,26.5,30.13,WNW,291,14.0,17.0,67,0.00,,,0.00,504,Wunderground v.1.15,2013-01-25 19:10:00,
2013-01-25 13:12:00,36.6,27.0,30.13,WNW,295,15.0,21.0,68,0.00,,,0.00,499,Wunderground v.1.15,2013-01-25 19:12:00,
2013-01-25 13:15:00,36.9,27.3,30.13,WNW,297,17.0,21.0,68,0.00,,,0.00,499,Wunderground v.1.15,2013-01-25 19:15:00,
2013-01-25 13:16:00,37.1,27.5,30.13,WNW,293,14.0,21.0,68,0.00,,,0.00,499,Wunderground v.1.15,2013-01-25 19:16:00,
2013-01-25 13:17:00,37.1,27.2,30.13,NW,304,22.0,22.0,67,0.00,,,0.00,494,Wunderground v.1.15,2013-01-25 19:17:00,
2013-01-25 13:19:00,37.4,27.1,30.12,West,278,19.0,22.0,66,0.00,,,0.00,492,Wunderground v.1.15,2013-01-25 19:19:00,
2013-01-25 13:21:00,37.4,27.1,30.12,WNW,294,20.0,20.0,66,0.00,,,0.00,490,Wunderground v.1.15,2013-01-25 19:21:00,
2013-01-25 13:23:00,37.5,27.2,30.12,NW,304,19.0,22.0,66,0.00,,,0.00,492,Wunderground v.1.15,2013-01-25 19:23:00,
2013-01-25 13:24:00,37.4,26.7,30.12,NW,304,17.0,22.0,65,0.00,,,0.00,490,Wunderground v.1.15,2013-01-25 19:24:00,
2013-01-25 13:26:00,37.4,26.7,30.12,WNW,294,17.0,22.0,65,0.00,,,0.00,487,Wunderground v.1.15,2013-01-25 19:26:00,
2013-01-25 13:29:00,37.5,26.8,30.12,NW,311,21.0,22.0,65,0.00,,,0.00,489,Wunderground v.1.15,2013-01-25 19:29:00,
2013-01-25 13:30:00,37.4,26.7,30.12,WNW,300,18.0,18.0,65,0.00,,,0.00,485,Wunderground v.1.15,2013-01-25 19:30:00,
2013-01-25 13:31:00,37.4,27.1,30.12,WNW,296,18.0,18.0,66,0.00,,,0.00,485,Wunderground v.1.15,2013-01-25 19:31:00,
2013-01-25 13:32:00,37.3,26.6,30.12,WNW,302,14.0,23.0,65,0.00,,,0.00,483,Wunderground v.1.15,2013-01-25 19:32:00,
2013-01-25 13:36:00,37.3,27.0,30.12,WNW,290,18.0,23.0,66,0.00,,,0.00,483,Wunderground v.1.15,2013-01-25 19:36:00,
2013-01-25 13:37:00,37.4,27.4,30.12,WNW,290,16.0,23.0,67,0.00,,,0.00,480,Wunderground v.1.15,2013-01-25 19:37:00,
2013-01-25 13:38:00,37.4,27.4,30.12,WNW,294,16.0,23.0,67,0.00,,,0.00,480,Wunderground v.1.15,2013-01-25 19:38:00,
2013-01-25 13:41:00,37.6,27.6,30.12,WNW,299,17.0,19.0,67,0.00,,,0.00,475,Wunderground v.1.15,2013-01-25 19:41:00,
2013-01-25 13:42:00,37.7,27.7,30.12,NW,325,16.0,19.0,67,0.00,,,0.00,476,Wunderground v.1.15,2013-01-25 19:42:00,
2013-01-25 13:43:00,37.7,27.4,30.12,WNW,297,16.0,19.0,66,0.00,,,0.00,471,Wunderground v.1.15,2013-01-25 19:43:00,
2013-01-25 13:44:00,37.7,27.4,30.12,WNW,302,16.0,19.0,66,0.00,,,0.00,471,Wunderground v.1.15,2013-01-25 19:44:00,
2013-01-25 13:46:00,37.7,27.4,30.12,WNW,297,18.0,19.0,66,0.00,,,0.00,471,Wunderground v.1.15,2013-01-25 19:46:00,
2013-01-25 13:48:00,37.7,27.4,30.12,NW,309,12.0,19.0,66,0.00,,,0.00,464,Wunderground v.1.15,2013-01-25 19:48:00,
2013-01-25 13:49:00,37.7,27.4,30.12,WNW,292,19.0,20.0,66,0.00,,,0.00,464,Wunderground v.1.15,2013-01-25 19:49:00,
2013-01-25 13:53:00,37.7,27.4,30.12,WNW,292,17.0,21.0,66,0.00,,,0.00,457,Wunderground v.1.15,2013-01-25 19:53:00,
2013-01-25 13:54:00,37.7,27.4,30.12,WNW,292,18.0,21.0,66,0.00,,,0.00,454,Wunderground v.1.15,2013-01-25 19:54:00,
2013-01-25 13:55:00,37.7,27.4,30.12,NW,307,17.0,21.0,66,0.00,,,0.00,455,Wunderground v.1.15,2013-01-25 19:55:00,
2013-01-25 13:58:00,37.8,27.8,30.12,NW,309,17.0,22.0,67,0.00,,,0.00,454,Wunderground v.1.15,2013-01-25 19:58:00,
2013-01-25 13:59:00,37.8,27.5,30.12,NW,305,16.0,22.0,66,0.00,,,0.00,454,Wunderground v.1.15,2013-01-25 19:59:00,
2013-01-25 14:01:00,37.9,27.5,30.12,WNW,303,17.0,21.0,66,0.00,,,0.00,446,Wunderground v.1.15,2013-01-25 20:01:00,
2013-01-25 14:02:00,37.9,27.5,30.12,WNW,289,16.0,21.0,66,0.00,,,0.00,448,Wunderground v.1.15,2013-01-25 20:02:00,
2013-01-25 14:04:00,38.0,27.6,30.11,WNW,302,18.0,21.0,66,0.00,,,0.00,438,Wunderground v.1.15,2013-01-25 20:04:00,
2013-01-25 14:05:00,38.2,28.2,30.12,NW,311,14.0,21.0,67,0.00,,,0.00,441,Wunderground v.1.15,2013-01-25 20:05:00,
2013-01-25 14:07:00,38.2,27.8,30.12,WNW,288,16.0,21.0,66,0.00,,,0.00,443,Wunderground v.1.15,2013-01-25 20:07:00,
2013-01-25 14:10:00,38.4,28.0,30.11,WNW,298,21.0,21.0,66,0.00,,,0.00,436,Wunderground v.1.15,2013-01-25 20:10:00,
2013-01-25 14:13:00,38.3,27.9,30.11,WNW,298,16.0,20.0,66,0.00,,,0.00,432,Wunderground v.1.15,2013-01-25 20:13:00,
2013-01-25 14:14:00,38.4,28.0,30.11,WNW,300,19.0,20.0,66,0.00,,,0.00,431,Wunderground v.1.15,2013-01-25 20:14:00,
2013-01-25 14:15:00,38.4,28.4,30.11,West,280,14.0,20.0,67,0.00,,,0.00,431,Wunderground v.1.15,2013-01-25 20:15:00,
2013-01-25 14:16:00,38.3,27.9,30.11,WNW,292,15.0,20.0,66,0.00,,,0.00,429,Wunderground v.1.15,2013-01-25 20:16:00,
2013-01-25 14:18:00,38.3,27.9,30.12,WNW,294,17.0,21.0,66,0.00,,,0.00,424,Wunderground v.1.15,2013-01-25 20:18:00,
2013-01-25 14:19:00,38.3,27.9,30.12,WNW,292,18.0,21.0,66,0.00,,,0.00,424,Wunderground v.1.15,2013-01-25 20:19:00,
2013-01-25 14:21:00,38.2,27.8,30.12,NW,309,19.0,19.0,66,0.00,,,0.00,418,Wunderground v.1.15,2013-01-25 20:21:00,
2013-01-25 14:22:00,38.2,27.8,30.12,NW,307,17.0,20.0,66,0.00,,,0.00,415,Wunderground v.1.15,2013-01-25 20:22:00,
2013-01-25 14:24:00,38.2,27.8,30.11,WNW,300,17.0,20.0,66,0.00,,,0.00,411,Wunderground v.1.15,2013-01-25 20:24:00,
2013-01-25 14:25:00,38.2,27.8,30.12,NW,321,16.0,20.0,66,0.00,,,0.00,406,Wunderground v.1.15,2013-01-25 20:25:00,
2013-01-25 14:27:00,38.2,27.8,30.11,WNW,300,12.0,20.0,66,0.00,,,0.00,401,Wunderground v.1.15,2013-01-25 20:27:00,
2013-01-25 14:28:00,38.2,27.8,30.11,NW,313,15.0,20.0,66,0.00,,,0.00,404,Wunderground v.1.15,2013-01-25 20:28:00,
2013-01-25 14:29:00,38.1,27.7,30.11,NW,309,14.0,20.0,66,0.00,,,0.00,392,Wunderground v.1.15,2013-01-25 20:29:00,
2013-01-25 14:31:00,38.2,28.2,30.12,WNW,298,18.0,18.0,67,0.00,,,0.00,404,Wunderground v.1.15,2013-01-25 20:31:00,
2013-01-25 14:32:00,38.2,28.2,30.11,WNW,286,16.0,18.0,67,0.00,,,0.00,394,Wunderground v.1.15,2013-01-25 20:32:00,
2013-01-25 14:33:00,38.2,28.2,30.12,WNW,302,15.0,18.0,67,0.00,,,0.00,392,Wunderground v.1.15,2013-01-25 20:33:00,
2013-01-25 14:35:00,38.2,27.8,30.12,WNW,300,17.0,19.0,66,0.00,,,0.00,383,Wunderground v.1.15,2013-01-25 20:35:00,
2013-01-25 14:37:00,38.1,27.7,30.12,NW,318,20.0,22.0,66,0.00,,,0.00,390,Wunderground v.1.15,2013-01-25 20:37:00,
2013-01-25 14:38:00,38.0,27.6,30.12,NW,317,18.0,22.0,66,0.00,,,0.00,387,Wunderground v.1.15,2013-01-25 20:38:00,
2013-01-25 14:40:00,38.1,28.1,30.12,NW,318,14.0,17.0,67,0.00,,,0.00,383,Wunderground v.1.15,2013-01-25 20:40:00,
2013-01-25 14:41:00,38.1,28.1,30.12,WNW,294,16.0,17.0,67,0.00,,,0.00,383,Wunderground v.1.15,2013-01-25 20:41:00,
2013-01-25 14:42:00,38.1,27.7,30.12,WNW,301,16.0,18.0,66,0.00,,,0.00,380,Wunderground v.1.15,2013-01-25 20:42:00,
2013-01-25 14:45:00,38.2,28.2,30.12,NW,319,17.0,21.0,67,0.00,,,0.00,373,Wunderground v.1.15,2013-01-25 20:45:00,
2013-01-25 14:47:00,38.1,27.7,30.12,WNW,293,19.0,21.0,66,0.00,,,0.00,369,Wunderground v.1.15,2013-01-25 20:47:00,
2013-01-25 14:51:00,38.1,28.1,30.12,WNW,303,15.0,17.0,67,0.00,,,0.00,360,Wunderground v.1.15,2013-01-25 20:51:00,
2013-01-25 14:52:00,38.1,28.1,30.12,NW,309,18.0,18.0,67,0.00,,,0.00,360,Wunderground v.1.15,2013-01-25 20:52:00,
2013-01-25 14:53:00,38.1,28.1,30.12,WNW,296,14.0,18.0,67,0.00,,,0.00,353,Wunderground v.1.15,2013-01-25 20:53:00,
2013-01-25 14:58:00,38.1,28.1,30.12,WNW,302,14.0,19.0,67,0.00,,,0.00,343,Wunderground v.1.15,2013-01-25 20:58:00,
2013-01-25 14:59:00,38.2,28.2,30.12,NW,306,17.0,20.0,67,0.00,,,0.00,338,Wunderground v.1.15,2013-01-25 20:59:00,
2013-01-25 15:03:00,38.2,28.2,30.11,NW,321,14.0,18.0,67,0.00,,,0.00,336,Wunderground v.1.15,2013-01-25 21:03:00,
2013-01-25 15:04:00,38.2,28.2,30.11,NW,313,15.0,18.0,67,0.00,,,0.00,332,Wunderground v.1.15,2013-01-25 21:04:00,
2013-01-25 15:05:00,38.2,27.8,30.12,NW,310,17.0,18.0,66,0.00,,,0.00,329,Wunderground v.1.15,2013-01-25 21:05:00,
2013-01-25 15:09:00,38.1,27.7,30.12,NW,317,14.0,18.0,66,0.00,,,0.00,322,Wunderground v.1.15,2013-01-25 21:09:00,
2013-01-25 15:10:00,38.1,28.1,30.12,WNW,302,15.0,17.0,67,0.00,,,0.00,320,Wunderground v.1.15,2013-01-25 21:10:00,
2013-01-25 15:14:00,38.2,28.6,30.12,NW,304,11.0,17.0,68,0.00,,,0.00,316,Wunderground v.1.15,2013-01-25 21:14:00,
2013-01-25 15:15:00,38.3,28.3,30.12,NW,311,13.0,17.0,67,0.00,,,0.00,313,Wunderground v.1.15,2013-01-25 21:15:00,
2013-01-25 15:16:00,38.3,28.3,30.12,NNW,327,10.0,17.0,67,0.00,,,0.00,308,Wunderground v.1.15,2013-01-25 21:16:00,
2013-01-25 15:20:00,38.2,28.2,30.12,NW,311,17.0,17.0,67,0.00,,,0.00,299,Wunderground v.1.15,2013-01-25 21:20:00,
2013-01-25 15:21:00,38.2,28.6,30.12,NW,306,14.0,17.0,68,0.00,,,0.00,292,Wunderground v.1.15,2013-01-25 21:21:00,
2013-01-25 15:22:00,38.2,28.6,30.12,NW,315,13.0,17.0,68,0.00,,,0.00,288,Wunderground v.1.15,2013-01-25 21:22:00,
2013-01-25 15:26:00,38.2,28.2,30.12,NW,307,15.0,18.0,67,0.00,,,0.00,278,Wunderground v.1.15,2013-01-25 21:26:00,
2013-01-25 15:27:00,38.2,28.2,30.12,NW,321,16.0,18.0,67,0.00,,,0.00,279,Wunderground v.1.15,2013-01-25 21:27:00,
2013-01-25 15:30:00,38.1,28.1,30.12,NW,311,15.0,15.0,67,0.00,,,0.00,272,Wunderground v.1.15,2013-01-25 21:30:00,
2013-01-25 15:33:00,38.0,28.0,30.12,NW,316,11.0,17.0,67,0.00,,,0.00,264,Wunderground v.1.15,2013-01-25 21:33:00,
2013-01-25 15:35:00,38.0,28.4,30.12,NW,317,15.0,17.0,68,0.00,,,0.00,257,Wunderground v.1.15,2013-01-25 21:35:00,
2013-01-25 15:38:00,37.9,28.3,30.12,NW,314,11.0,18.0,68,0.00,,,0.00,225,Wunderground v.1.15,2013-01-25 21:38:00,
2013-01-25 15:39:00,38.0,28.4,30.12,NW,309,12.0,18.0,68,0.00,,,0.00,248,Wunderground v.1.15,2013-01-25 21:39:00,
2013-01-25 15:40:00,38.0,28.4,30.12,NW,313,15.0,15.0,68,0.00,,,0.00,248,Wunderground v.1.15,2013-01-25 21:40:00,
2013-01-25 15:44:00,37.9,28.3,30.12,NW,311,14.0,17.0,68,0.00,,,0.00,232,Wunderground v.1.15,2013-01-25 21:44:00,
2013-01-25 15:46:00,37.9,28.3,30.12,WNW,301,14.0,17.0,68,0.00,,,0.00,209,Wunderground v.1.15,2013-01-25 21:46:00,
2013-01-25 15:50:00,37.9,28.3,30.12,WNW,299,15.0,15.0,68,0.00,,,0.00,139,Wunderground v.1.15,2013-01-25 21:50:00,
2013-01-25 15:52:00,37.7,28.1,30.12,NW,317,17.0,18.0,68,0.00,,,0.00,125,Wunderground v.1.15,2013-01-25 21:52:00,
2013-01-25 15:55:00,37.5,27.9,30.12,NW,322,17.0,18.0,68,0.00,,,0.00,156,Wunderground v.1.15,2013-01-25 21:55:00,
2013-01-25 15:56:00,37.5,27.9,30.12,NW,315,14.0,18.0,68,0.00,,,0.00,141,Wunderground v.1.15,2013-01-25 21:56:00,
2013-01-25 15:57:00,37.4,27.8,30.12,NW,315,14.0,18.0,68,0.00,,,0.00,141,Wunderground v.1.15,2013-01-25 21:57:00,
2013-01-25 16:00:00,37.2,28.0,30.12,NW,306,14.0,15.0,69,0.00,,,0.00,183,Wunderground v.1.15,2013-01-25 22:00:00,
2013-01-25 16:02:00,37.1,27.9,30.12,NW,316,10.0,15.0,69,0.00,,,0.00,162,Wunderground v.1.15,2013-01-25 22:02:00,
2013-01-25 16:05:00,37.1,27.9,30.12,WNW,303,13.0,16.0,69,0.00,,,0.00,169,Wunderground v.1.15,2013-01-25 22:05:00,
2013-01-25 16:07:00,37.1,27.9,30.12,NW,306,12.0,16.0,69,0.00,,,0.00,165,Wunderground v.1.15,2013-01-25 22:07:00,
2013-01-25 16:08:00,37.1,28.2,30.12,NW,309,11.0,16.0,70,0.00,,,0.00,160,Wunderground v.1.15,2013-01-25 22:08:00,
2013-01-25 16:11:00,37.1,28.2,30.12,WNW,296,14.0,14.0,70,0.00,,,0.00,153,Wunderground v.1.15,2013-01-25 22:11:00,
2013-01-25 16:12:00,37.1,28.2,30.12,NW,320,15.0,17.0,70,0.00,,,0.00,149,Wunderground v.1.15,2013-01-25 22:12:00,
2013-01-25 16:13:00,37.1,27.9,30.12,NW,319,16.0,17.0,69,0.00,,,0.00,148,Wunderground v.1.15,2013-01-25 22:13:00,
2013-01-25 16:17:00,36.9,28.0,30.12,NW,314,14.0,18.0,70,0.00,,,0.00,134,Wunderground v.1.15,2013-01-25 22:17:00,
2013-01-25 16:18:00,36.9,28.0,30.12,NNW,329,13.0,18.0,70,0.00,,,0.00,134,Wunderground v.1.15,2013-01-25 22:18:00,
2013-01-25 16:21:00,36.8,27.6,30.13,NW,307,13.0,17.0,69,0.00,,,0.00,120,Wunderground v.1.15,2013-01-25 22:21:00,
2013-01-25 16:22:00,36.7,27.5,30.13,NW,309,16.0,17.0,69,0.00,,,0.00,120,Wunderground v.1.15,2013-01-25 22:22:00,
2013-01-25 16:25:00,36.6,27.7,30.13,NW,321,11.0,17.0,70,0.00,,,0.00,109,Wunderground v.1.15,2013-01-25 22:25:00,
2013-01-25 16:26:00,36.6,27.7,30.13,NW,309,14.0,17.0,70,0.00,,,0.00,107,Wunderground v.1.15,2013-01-25 22:26:00,
2013-01-25 16:27:00,36.5,27.6,30.13,NW,306,12.0,17.0,70,0.00,,,0.00,100,Wunderground v.1.15,2013-01-25 22:27:00,
2013-01-25 16:30:00,36.4,27.5,30.13,NW,316,13.0,16.0,70,0.00,,,0.00,91,Wunderground v.1.15,2013-01-25 22:30:00,
2013-01-25 16:31:00,36.4,27.5,30.13,NW,313,13.0,16.0,70,0.00,,,0.00,91,Wunderground v.1.15,2013-01-25 22:31:00,
2013-01-25 16:32:00,36.3,27.4,30.13,NW,305,12.0,16.0,70,0.00,,,0.00,86,Wunderground v.1.15,2013-01-25 22:32:00,
2013-01-25 16:33:00,36.2,27.7,30.13,NW,305,12.0,16.0,71,0.00,,,0.00,84,Wunderground v.1.15,2013-01-25 22:33:00,
2013-01-25 16:36:00,36.1,27.6,30.13,NW,313,10.0,16.0,71,0.00,,,0.00,77,Wunderground v.1.15,2013-01-25 22:36:00,
2013-01-25 16:38:00,36.0,27.8,30.13,NW,315,13.0,16.0,72,0.00,,,0.00,70,Wunderground v.1.15,2013-01-25 22:38:00,
2013-01-25 16:41:00,35.9,27.7,30.13,NW,305,12.0,15.0,72,0.00,,,0.00,62,Wunderground v.1.15,2013-01-25 22:41:00,
2013-01-25 16:42:00,35.8,27.7,30.13,NW,316,14.0,15.0,72,0.00,,,0.00,60,Wunderground v.1.15,2013-01-25 22:42:00,
2013-01-25 16:43:00,35.8,27.7,30.13,NW,310,11.0,15.0,72,0.00,,,0.00,58,Wunderground v.1.15,2013-01-25 22:43:00,
2013-01-25 16:46:00,35.7,27.6,30.13,WNW,296,14.0,15.0,72,0.00,,,0.00,40,Wunderground v.1.15,2013-01-25 22:46:00,
2013-01-25 16:47:00,35.6,27.5,30.13,NW,304,13.0,15.0,72,0.00,,,0.00,35,Wunderground v.1.15,2013-01-25 22:47:00,
2013-01-25 16:48:00,35.7,27.6,30.13,NW,305,15.0,15.0,72,0.00,,,0.00,39,Wunderground v.1.15,2013-01-25 22:48:00,
2013-01-25 16:49:00,35.6,27.5,30.14,NW,313,11.0,15.0,72,0.00,,,0.00,39,Wunderground v.1.15,2013-01-25 22:49:00,
2013-01-25 16:52:00,35.5,27.4,30.13,WNW,300,15.0,15.0,72,0.00,,,0.00,37,Wunderground v.1.15,2013-01-25 22:52:00,
2013-01-25 16:53:00,35.5,27.4,30.13,NW,317,11.0,15.0,72,0.00,,,0.00,35,Wunderground v.1.15,2013-01-25 22:53:00,
2013-01-25 16:54:00,35.5,27.4,30.13,NW,325,13.0,15.0,72,0.00,,,0.00,33,Wunderground v.1.15,2013-01-25 22:54:00,
2013-01-25 16:57:00,35.4,27.3,30.13,NW,310,16.0,18.0,72,0.00,,,0.00,26,Wunderground v.1.15,2013-01-25 22:57:00,
2013-01-25 16:58:00,35.3,27.2,30.13,WNW,300,13.0,18.0,72,0.00,,,0.00,25,Wunderground v.1.15,2013-01-25 22:58:00,
2013-01-25 16:59:00,35.3,27.2,30.13,NW,308,15.0,18.0,72,0.00,,,0.00,25,Wunderground v.1.15,2013-01-25 22:59:00,
2013-01-25 17:03:00,35.2,27.1,30.14,NW,316,11.0,14.0,72,0.00,,,0.00,19,Wunderground v.1.15,2013-01-25 23:03:00,
2013-01-25 17:05:00,35.1,27.0,30.13,NW,311,10.0,15.0,72,0.00,,,0.00,16,Wunderground v.1.15,2013-01-25 23:05:00,
2013-01-25 17:06:00,35.1,27.0,30.14,NW,305,9.0,15.0,72,0.00,,,0.00,16,Wunderground v.1.15,2013-01-25 23:06:00,
2013-01-25 17:09:00,34.8,27.0,30.14,NW,317,12.0,17.0,73,0.00,,,0.00,14,Wunderground v.1.15,2013-01-25 23:09:00,
2013-01-25 17:10:00,34.8,27.0,30.14,NW,308,9.0,12.0,73,0.00,,,0.00,14,Wunderground v.1.15,2013-01-25 23:10:00,
2013-01-25 17:12:00,34.7,26.9,30.14,WNW,299,15.0,15.0,73,0.00,,,0.00,12,Wunderground v.1.15,2013-01-25 23:12:00,
2013-01-25 17:13:00,34.6,26.8,30.14,NW,311,15.0,15.0,73,0.00,,,0.00,11,Wunderground v.1.15,2013-01-25 23:13:00,
2013-01-25 17:14:00,34.5,26.7,30.14,NNW,331,12.0,16.0,73,0.00,,,0.00,11,Wunderground v.1.15,2013-01-25 23:14:00,
2013-01-25 17:17:00,34.4,26.6,30.14,NW,313,16.0,16.0,73,0.00,,,0.00,9,Wunderground v.1.15,2013-01-25 23:17:00,
2013-01-25 17:20:00,34.3,26.5,30.14,NW,304,13.0,13.0,73,0.00,,,0.00,7,Wunderground v.1.15,2013-01-25 23:20:00,
2013-01-25 17:21:00,34.3,26.5,30.15,NW,308,11.0,13.0,73,0.00,,,0.00,7,Wunderground v.1.15,2013-01-25 23:21:00,
2013-01-25 17:22:00,34.2,26.4,30.14,NW,309,11.0,13.0,73,0.00,,,0.00,5,Wunderground v.1.15,2013-01-25 23:22:00,
2013-01-25 17:23:00,34.1,26.3,30.14,NW,320,11.0,13.0,73,0.00,,,0.00,5,Wunderground v.1.15,2013-01-25 23:23:00,
2013-01-25 17:26:00,33.9,26.2,30.14,NW,308,11.0,15.0,73,0.00,,,0.00,0,Wunderground v.1.15,2013-01-25 23:26:00,
2013-01-25 17:27:00,33.8,26.1,30.14,NW,309,10.0,15.0,73,0.00,,,0.00,0,Wunderground v.1.15,2013-01-25 23:27:00,
2013-01-25 17:28:00,33.8,26.1,30.14,NW,306,13.0,15.0,73,0.00,,,0.00,0,Wunderground v.1.15,2013-01-25 23:28:00,
2013-01-25 17:32:00,33.7,26.3,30.14,NW,314,11.0,14.0,74,0.00,,,0.00,0,Wunderground v.1.15,2013-01-25 23:32:00,
2013-01-25 17:33:00,33.6,26.2,30.14,NW,309,9.0,14.0,74,0.00,,,0.00,0,Wunderground v.1.15,2013-01-25 23:33:00,
2013-01-25 17:34:00,33.5,26.1,30.14,NW,313,9.0,14.0,74,0.00,,,0.00,0,Wunderground v.1.15,2013-01-25 23:34:00,
2013-01-25 17:36:00,33.4,26.3,30.14,NW,313,10.0,14.0,75,0.00,,,0.00,0,Wunderground v.1.15,2013-01-25 23:36:00,
2013-01-25 17:37:00,33.3,26.2,30.14,NW,314,12.0,14.0,75,0.00,,,0.00,0,Wunderground v.1.15,2013-01-25 23:37:00,
2013-01-25 17:40:00,33.1,26.0,30.14,NW,314,9.0,10.0,75,0.00,,,0.00,0,Wunderground v.1.15,2013-01-25 23:40:00,
2013-01-25 17:41:00,33.1,26.0,30.14,NW,304,11.0,11.0,75,0.00,,,0.00,0,Wunderground v.1.15,2013-01-25 23:41:00,
2013-01-25 17:42:00,33.0,25.9,30.14,NW,321,10.0,11.0,75,0.00,,,0.00,0,Wunderground v.1.15,2013-01-25 23:42:00,
2013-01-25 17:45:00,32.9,25.8,30.14,NW,312,12.0,13.0,75,0.00,,,0.00,0,Wunderground v.1.15,2013-01-25 23:45:00,
2013-01-25 17:47:00,32.9,26.2,30.14,NW,312,10.0,13.0,76,0.00,,,0.00,0,Wunderground v.1.15,2013-01-25 23:47:00,
2013-01-25 17:49:00,32.8,26.1,30.15,NW,305,8.0,13.0,76,0.00,,,0.00,0,Wunderground v.1.15,2013-01-25 23:49:00,
2013-01-25 17:51:00,32.8,26.1,30.15,NW,315,8.0,10.0,76,0.00,,,0.00,0,Wunderground v.1.15,2013-01-25 23:51:00,
2013-01-25 17:53:00,32.7,26.0,30.15,NW,313,7.0,10.0,76,0.00,,,0.00,0,Wunderground v.1.15,2013-01-25 23:53:00,
2013-01-25 17:55:00,32.6,25.9,30.15,NW,319,7.0,11.0,76,0.00,,,0.00,0,Wunderground v.1.15,2013-01-25 23:55:00,
2013-01-25 17:56:00,32.6,25.9,30.15,NW,312,8.0,11.0,76,0.00,,,0.00,0,Wunderground v.1.15,2013-01-25 23:56:00,
2013-01-25 17:58:00,32.5,25.8,30.15,NW,319,7.0,11.0,76,0.00,,,0.00,0,Wunderground v.1.15,2013-01-25 23:58:00,
2013-01-25 18:01:00,32.4,26.0,30.15,NW,317,8.0,9.0,77,0.00,,,0.00,0,Wunderground v.1.15,2013-01-26 00:01:00,
2013-01-25 18:04:00,32.2,25.8,30.15,NW,319,6.0,10.0,77,0.00,,,0.00,0,Wunderground v.1.15,2013-01-26 00:04:00,
2013-01-25 18:05:00,32.1,25.7,30.15,NW,319,6.0,10.0,77,0.00,,,0.00,0,Wunderground v.1.15,2013-01-26 00:05:00,
2013-01-25 18:06:00,32.1,25.7,30.15,NW,321,7.0,10.0,77,0.00,,,0.00,0,Wunderground v.1.15,2013-01-26 00:06:00,
2013-01-25 18:07:00,32.1,26.0,30.15,NW,314,7.0,10.0,78,0.00,,,0.00,0,Wunderground v.1.15,2013-01-26 00:07:00,
2013-01-25 18:09:00,31.9,25.8,30.15,NW,313,6.0,10.0,78,0.00,,,0.00,0,Wunderground v.1.15,2013-01-26 00:09:00,
2013-01-25 18:11:00,31.7,25.6,30.16,NW,311,6.0,7.0,78,0.00,,,0.00,0,Wunderground v.1.15,2013-01-26 00:11:00,
2013-01-25 18:12:00,31.6,25.5,30.16,NW,313,5.0,7.0,78,0.00,,,0.00,0,Wunderground v.1.15,2013-01-26 00:12:00,
2013-01-25 18:13:00,31.6,25.5,30.16,NW,313,5.0,7.0,78,0.00,,,0.00,0,Wunderground v.1.15,2013-01-26 00:13:00,
2013-01-25 18:14:00,31.5,25.4,30.16,NW,310,5.0,7.0,78,0.00,,,0.00,0,Wunderground v.1.15,2013-01-26 00:14:00,
2013-01-25 18:17:00,31.1,25.3,30.16,WNW,303,5.0,7.0,79,0.00,,,0.00,0,Wunderground v.1.15,2013-01-26 00:17:00,
2013-01-25 18:18:00,30.9,25.2,30.16,NW,318,5.0,7.0,79,0.00,,,0.00,0,Wunderground v.1.15,2013-01-26 00:18:00,
2013-01-25 18:19:00,30.8,25.1,30.16,NW,314,5.0,7.0,79,0.00,,,0.00,0,Wunderground v.1.15,2013-01-26 00:19:00,
2013-01-25 18:22:00,30.6,25.2,30.16,NW,312,6.0,7.0,80,0.00,,,0.00,0,Wunderground v.1.15,2013-01-26 00:22:00,
2013-01-25 18:23:00,30.6,25.2,30.16,NW,310,7.0,7.0,80,0.00,,,0.00,0,Wunderground v.1.15,2013-01-26 00:23:00,
2013-01-25 18:24:00,30.6,25.2,30.16,NW,315,5.0,7.0,80,0.00,,,0.00,0,Wunderground v.1.15,2013-01-26 00:24:00,
2013-01-25 18:25:00,30.6,25.2,30.16,NW,317,6.0,7.0,80,0.00,,,0.00,0,Wunderground v.1.15,2013-01-26 00:25:00,
2013-01-25 18:28:00,30.5,25.1,30.16,NW,316,6.0,7.0,80,0.00,,,0.00,0,Wunderground v.1.15,2013-01-26 00:28:00,
2013-01-25 18:30:00,30.4,25.0,30.16,NW,325,4.0,7.0,80,0.00,,,0.00,0,Wunderground v.1.15,2013-01-26 00:30:00,
2013-01-25 18:32:00,30.3,24.9,30.17,NW,316,4.0,6.0,80,0.00,,,0.00,0,Wunderground v.1.15,2013-01-26 00:32:00,
2013-01-25 18:33:00,30.1,24.7,30.17,NW,320,4.0,6.0,80,0.00,,,0.00,0,Wunderground v.1.15,2013-01-26 00:33:00,
2013-01-25 18:35:00,30.1,25.0,30.17,NW,321,3.0,6.0,81,0.00,,,0.00,0,Wunderground v.1.15,2013-01-26 00:35:00,
2013-01-25 18:38:00,30.0,24.9,30.17,NNW,329,5.0,8.0,81,0.00,,,0.00,0,Wunderground v.1.15,2013-01-26 00:38:00,
2013-01-25 18:40:00,30.0,24.9,30.17,NW,325,7.0,7.0,81,0.00,,,0.00,0,Wunderground v.1.15,2013-01-26 00:40:00,
2013-01-25 18:44:00,30.0,24.9,30.17,NW,319,7.0,8.0,81,0.00,,,0.00,0,Wunderground v.1.15,2013-01-26 00:44:00,
2013-01-25 18:46:00,30.0,24.9,30.17,NW,312,6.0,8.0,81,0.00,,,0.00,0,Wunderground v.1.15,2013-01-26 00:46:00,
2013-01-25 18:49:00,29.9,24.8,30.17,NW,311,6.0,8.0,81,0.00,,,0.00,0,Wunderground v.1.15,2013-01-26 00:49:00,
2013-01-25 18:51:00,29.8,24.7,30.17,NW,312,6.0,6.0,81,0.00,,,0.00,0,Wunderground v.1.15,2013-01-26 00:51:00,
2013-01-25 18:53:00,29.7,24.6,30.17,NW,313,5.0,6.0,81,0.00,,,0.00,0,Wunderground v.1.15,2013-01-26 00:53:00,
2013-01-25 18:54:00,29.7,24.6,30.17,NW,314,3.0,6.0,81,0.00,,,0.00,0,Wunderground v.1.15,2013-01-26 00:54:00,
2013-01-25 18:55:00,29.6,24.5,30.18,NW,312,5.0,6.0,81,0.00,,,0.00,0,Wunderground v.1.15,2013-01-26 00:55:00,
2013-01-25 18:57:00,29.4,24.3,30.18,NW,319,4.0,6.0,81,0.00,,,0.00,0,Wunderground v.1.15,2013-01-26 00:57:00,
2013-01-25 18:59:00,29.3,24.2,30.18,NW,324,5.0,7.0,81,0.00,,,0.00,0,Wunderground v.1.15,2013-01-26 00:59:00,
2013-01-25 19:00:00,29.3,24.5,30.18,NW,313,5.0,5.0,82,0.00,,,0.00,0,Wunderground v.1.15,2013-01-26 01:00:00,
2013-01-25 19:03:00,29.2,24.4,30.18,NW,314,5.0,5.0,82,0.00,,,0.00,0,Wunderground v.1.15,2013-01-26 01:03:00,
2013-01-25 19:04:00,29.2,24.4,30.18,NW,312,6.0,7.0,82,0.00,,,0.00,0,Wunderground v.1.15,2013-01-26 01:04:00,
2013-01-25 19:06:00,29.1,24.3,30.18,NW,306,5.0,7.0,82,0.00,,,0.00,0,Wunderground v.1.15,2013-01-26 01:06:00,
2013-01-25 19:07:00,29.1,24.3,30.18,NW,317,7.0,7.0,82,0.00,,,0.00,0,Wunderground v.1.15,2013-01-26 01:07:00,
2013-01-25 19:08:00,29.1,24.3,30.18,NW,310,7.0,7.0,82,0.00,,,0.00,0,Wunderground v.1.15,2013-01-26 01:08:00,
2013-01-25 19:10:00,29.0,24.2,30.18,NW,313,6.0,8.0,82,0.00,,,0.00,0,Wunderground v.1.15,2013-01-26 01:10:00,
2013-01-25 19:12:00,29.0,24.2,30.18,NW,314,7.0,7.0,82,0.00,,,0.00,0,Wunderground v.1.15,2013-01-26 01:12:00,
2013-01-25 19:13:00,29.0,24.2,30.18,NW,315,8.0,8.0,82,0.00,,,0.00,0,Wunderground v.1.15,2013-01-26 01:13:00,
2013-01-25 19:14:00,28.9,24.1,30.18,NW,312,6.0,8.0,82,0.00,,,0.00,0,Wunderground v.1.15,2013-01-26 01:14:00,
2013-01-25 19:18:00,28.9,24.1,30.19,NW,311,6.0,8.0,82,0.00,,,0.00,0,Wunderground v.1.15,2013-01-26 01:18:00,
2013-01-25 19:19:00,28.8,24.0,30.19,NW,313,6.0,8.0,82,0.00,,,0.00,0,Wunderground v.1.15,2013-01-26 01:19:00,
2013-01-25 19:21:00,28.7,23.9,30.19,NW,321,5.0,7.0,82,0.00,,,0.00,0,Wunderground v.1.15,2013-01-26 01:21:00,
2013-01-25 19:23:00,28.6,23.8,30.19,NW,325,5.0,7.0,82,0.00,,,0.00,0,Wunderground v.1.15,2013-01-26 01:23:00,
2013-01-25 19:24:00,28.5,23.7,30.19,NW,315,6.0,7.0,82,0.00,,,0.00,0,Wunderground v.1.15,2013-01-26 01:24:00,
2013-01-25 19:26:00,28.4,23.6,30.19,NW,317,5.0,7.0,82,0.00,,,0.00,0,Wunderground v.1.15,2013-01-26 01:26:00,
2013-01-25 19:29:00,28.4,23.6,30.19,NW,321,5.0,7.0,82,0.00,,,0.00,0,Wunderground v.1.15,2013-01-26 01:29:00,
2013-01-25 19:33:00,28.1,23.3,30.19,NW,319,5.0,5.0,82,0.00,,,0.00,0,Wunderground v.1.15,2013-01-26 01:33:00,
2013-01-25 19:35:00,28.0,23.2,30.20,NW,319,8.0,8.0,82,0.00,,,0.00,0,Wunderground v.1.15,2013-01-26 01:35:00,
2013-01-25 19:38:00,27.9,22.8,30.20,NNW,336,0.0,8.0,81,0.00,,,0.00,0,Wunderground v.1.15,2013-01-26 01:38:00,
2013-01-25 19:40:00,27.8,22.7,30.20,NNW,344,6.0,6.0,81,0.00,,,0.00,0,Wunderground v.1.15,2013-01-26 01:40:00,
2013-01-25 19:41:00,27.7,22.6,30.20,NNE,33,5.0,7.0,81,0.00,,,0.00,0,Wunderground v.1.15,2013-01-26 01:41:00,
2013-01-25 19:43:00,27.7,22.0,30.20,NNW,344,4.0,7.0,79,0.00,,,0.00,0,Wunderground v.1.15,2013-01-26 01:43:00,
2013-01-25 19:46:00,27.6,21.9,30.20,NW,324,1.0,7.0,79,0.00,,,0.00,0,Wunderground v.1.15,2013-01-26 01:46:00,
2013-01-25 19:48:00,27.4,21.7,30.20,NNW,334,3.0,8.0,79,0.00,,,0.00,0,Wunderground v.1.15,2013-01-26 01:48:00,
2013-01-25 19:49:00,27.4,21.7,30.20,NW,310,3.0,8.0,79,0.00,,,0.00,0,Wunderground v.1.15,2013-01-26 01:49:00,
2013-01-25 19:50:00,27.2,21.2,30.20,NNE,15,2.0,6.0,78,0.00,,,0.00,0,Wunderground v.1.15,2013-01-26 01:50:00,
2013-01-25 19:51:00,27.2,21.2,30.20,NNW,346,6.0,6.0,78,0.00,,,0.00,0,Wunderground v.1.15,2013-01-26 01:51:00,
2013-01-25 19:54:00,27.1,21.2,30.20,NW,323,3.0,10.0,78,0.00,,,0.00,0,Wunderground v.1.15,2013-01-26 01:54:00,
2013-01-25 19:55:00,27.0,20.7,30.21,NNW,334,7.0,11.0,77,0.00,,,0.00,0,Wunderground v.1.15,2013-01-26 01:55:00,
2013-01-25 19:57:00,26.8,20.2,30.20,NNW,327,5.0,11.0,76,0.00,,,0.00,0,Wunderground v.1.15,2013-01-26 01:57:00,
2013-01-25 19:59:00,26.7,19.8,30.21,NNW,332,5.0,11.0,75,0.00,,,0.00,0,Wunderground v.1.15,2013-01-26 01:59:00,
2013-01-25 20:00:00,26.6,19.7,30.21,NNW,338,4.0,6.0,75,0.00,,,0.00,0,Wunderground v.1.15,2013-01-26 02:00:00,
2013-01-25 20:03:00,26.4,19.5,30.21,NNW,329,6.0,10.0,75,0.00,,,0.00,0,Wunderground v.1.15,2013-01-26 02:03:00,
2013-01-25 20:05:00,26.2,19.4,30.21,NW,319,2.0,10.0,75,0.00,,,0.00,0,Wunderground v.1.15,2013-01-26 02:05:00,
2013-01-25 20:08:00,25.9,19.1,30.21,North,350,0.0,10.0,75,0.00,,,0.00,0,Wunderground v.1.15,2013-01-26 02:08:00,
2013-01-25 20:09:00,25.8,19.0,30.21,North,350,1.0,10.0,75,0.00,,,0.00,0,Wunderground v.1.15,2013-01-26 02:09:00,
2013-01-25 20:11:00,25.7,18.6,30.22,North,360,7.0,10.0,74,0.00,,,0.00,0,Wunderground v.1.15,2013-01-26 02:11:00,
2013-01-25 20:12:00,25.6,18.1,30.22,NE,34,6.0,10.0,73,0.00,,,0.00,0,Wunderground v.1.15,2013-01-26 02:12:00,
2013-01-25 20:15:00,25.1,16.7,30.22,NNE,30,3.0,10.0,70,0.00,,,0.00,0,Wunderground v.1.15,2013-01-26 02:15:00,
2013-01-25 20:16:00,25.0,16.6,30.22,NNE,30,4.0,10.0,70,0.00,,,0.00,0,Wunderground v.1.15,2013-01-26 02:16:00,
2013-01-25 20:17:00,24.8,16.4,30.22,NNE,30,5.0,10.0,70,0.00,,,0.00,0,Wunderground v.1.15,2013-01-26 02:17:00,
2013-01-25 20:21:00,24.3,15.9,30.22,North,5,4.0,5.0,70,0.00,,,0.00,0,Wunderground v.1.15,2013-01-26 02:21:00,
2013-01-25 20:22:00,24.1,15.7,30.22,North,5,7.0,7.0,70,0.00,,,0.00,0,Wunderground v.1.15,2013-01-26 02:22:00,
2013-01-25 20:26:00,23.7,15.3,30.22,NNE,14,7.0,7.0,70,0.00,,,0.00,0,Wunderground v.1.15,2013-01-26 02:26:00,
2013-01-25 20:27:00,23.5,15.5,30.22,NNW,337,4.0,7.0,71,0.00,,,0.00,0,Wunderground v.1.15,2013-01-26 02:27:00,
2013-01-25 20:29:00,23.4,15.4,30.22,NNE,29,3.0,7.0,71,0.00,,,0.00,0,Wunderground v.1.15,2013-01-26 02:29:00,
2013-01-25 20:33:00,22.9,14.9,30.22,NNE,19,1.0,6.0,71,0.00,,,0.00,0,Wunderground v.1.15,2013-01-26 02:33:00,
2013-01-25 20:34:00,22.9,14.9,30.22,NNE,19,3.0,6.0,71,0.00,,,0.00,0,Wunderground v.1.15,2013-01-26 02:34:00,
2013-01-25 20:35:00,22.8,14.8,30.23,NNE,29,4.0,6.0,71,0.00,,,0.00,0,Wunderground v.1.15,2013-01-26 02:35:00,
2013-01-25 20:39:00,22.5,14.5,30.23,NE,38,0.0,6.0,71,0.00,,,0.00,0,Wunderground v.1.15,2013-01-26 02:39:00,
2013-01-25 20:40:00,22.4,14.4,30.23,NE,38,0.0,6.0,71,0.00,,,0.00,0,Wunderground v.1.15,2013-01-26 02:40:00,
2013-01-25 20:43:00,22.0,14.0,30.23,NNE,15,4.0,5.0,71,0.00,,,0.00,0,Wunderground v.1.15,2013-01-26 02:43:00,
2013-01-25 20:45:00,21.9,13.9,30.23,North,355,0.0,5.0,71,0.00,,,0.00,0,Wunderground v.1.15,2013-01-26 02:45:00,
2013-01-25 20:47:00,21.8,13.8,30.24,NNE,12,5.0,5.0,71,0.00,,,0.00,0,Wunderground v.1.15,2013-01-26 02:47:00,
2013-01-25 20:49:00,21.6,13.6,30.24,NNW,344,5.0,5.0,71,0.00,,,0.00,0,Wunderground v.1.15,2013-01-26 02:49:00,
2013-01-25 20:52:00,21.5,13.2,30.24,NNE,26,3.0,5.0,70,0.00,,,0.00,0,Wunderground v.1.15,2013-01-26 02:52:00,
2013-01-25 20:53:00,21.5,13.2,30.24,NNE,26,3.0,5.0,70,0.00,,,0.00,0,Wunderground v.1.15,2013-01-26 02:53:00,
2013-01-25 20:55:00,21.3,13.0,30.24,NNE,26,4.0,5.0,70,0.00,,,0.00,0,Wunderground v.1.15,2013-01-26 02:55:00,
2013-01-25 20:58:00,21.1,13.2,30.24,NNE,15,2.0,5.0,71,0.00,,,0.00,0,Wunderground v.1.15,2013-01-26 02:58:00,
2013-01-25 20:59:00,21.0,13.1,30.24,North,355,2.0,6.0,71,0.00,,,0.00,0,Wunderground v.1.15,2013-01-26 02:59:00,
2013-01-25 21:00:00,20.9,13.0,30.25,North,10,1.0,4.0,71,0.00,,,0.00,0,Wunderground v.1.15,2013-01-26 03:00:00,
2013-01-25 21:01:00,20.9,13.0,30.25,NNE,22,3.0,4.0,71,0.00,,,0.00,0,Wunderground v.1.15,2013-01-26 03:01:00,
2013-01-25 21:04:00,20.7,12.8,30.25,NW,325,2.0,4.0,71,0.00,,,0.00,0,Wunderground v.1.15,2013-01-26 03:04:00,
2013-01-25 21:05:00,20.6,12.7,30.25,NNE,21,2.0,4.0,71,0.00,,,0.00,0,Wunderground v.1.15,2013-01-26 03:05:00,
2013-01-25 21:07:00,20.6,12.7,30.25,NNE,16,4.0,5.0,71,0.00,,,0.00,0,Wunderground v.1.15,2013-01-26 03:07:00,
2013-01-25 21:10:00,20.4,12.5,30.25,NNE,25,2.0,3.0,71,0.00,,,0.00,0,Wunderground v.1.15,2013-01-26 03:10:00,
2013-01-25 21:13:00,20.4,12.5,30.25,NNE,20,1.0,6.0,71,0.00,,,0.00,0,Wunderground v.1.15,2013-01-26 03:13:00,
2013-01-25 21:14:00,20.3,12.4,30.26,NNE,20,2.0,6.0,71,0.00,,,0.00,0,Wunderground v.1.15,2013-01-26 03:14:00,
2013-01-25 21:17:00,20.2,12.6,30.26,North,5,4.0,6.0,72,0.00,,,0.00,0,Wunderground v.1.15,2013-01-26 03:17:00,
2013-01-25 21:19:00,20.1,12.5,30.26,NE,42,4.0,6.0,72,0.00,,,0.00,0,Wunderground v.1.15,2013-01-26 03:19:00,
2013-01-25 21:22:00,20.0,12.4,30.26,North,360,1.0,5.0,72,0.00,,,0.00,0,Wunderground v.1.15,2013-01-26 03:22:00,
2013-01-25 21:23:00,19.9,12.3,30.26,NNE,24,2.0,5.0,72,0.00,,,0.00,0,Wunderground v.1.15,2013-01-26 03:23:00,
2013-01-25 21:28:00,19.7,12.1,30.26,North,360,3.0,5.0,72,0.00,,,0.00,0,Wunderground v.1.15,2013-01-26 03:28:00,
2013-01-25 21:29:00,19.7,12.1,30.26,NNE,30,4.0,6.0,72,0.00,,,0.00,0,Wunderground v.1.15,2013-01-26 03:29:00,
2013-01-25 21:30:00,19.7,12.1,30.26,NNE,19,4.0,5.0,72,0.00,,,0.00,0,Wunderground v.1.15,2013-01-26 03:30:00,
2013-01-25 21:34:00,19.5,11.9,30.26,North,5,4.0,7.0,72,0.00,,,0.00,0,Wunderground v.1.15,2013-01-26 03:34:00,
2013-01-25 21:35:00,19.5,11.9,30.26,NNE,24,4.0,7.0,72,0.00,,,0.00,0,Wunderground v.1.15,2013-01-26 03:35:00,
2013-01-25 21:39:00,19.3,11.7,30.27,NNE,15,4.0,7.0,72,0.00,,,0.00,0,Wunderground v.1.15,2013-01-26 03:39:00,
2013-01-25 21:40:00,19.1,11.6,30.27,NE,34,3.0,4.0,72,0.00,,,0.00,0,Wunderground v.1.15,2013-01-26 03:40:00,
2013-01-25 21:41:00,19.1,11.2,30.27,North,5,2.0,4.0,71,0.00,,,0.00,0,Wunderground v.1.15,2013-01-26 03:41:00,
2013-01-25 21:42:00,19.1,11.2,30.27,North,5,1.0,4.0,71,0.00,,,0.00,0,Wunderground v.1.15,2013-01-26 03:42:00,
2013-01-25 21:45:00,18.9,11.0,30.27,North,355,5.0,5.0,71,0.00,,,0.00,0,Wunderground v.1.15,2013-01-26 03:45:00,
2013-01-25 21:46:00,18.9,11.0,30.27,North,11,4.0,5.0,71,0.00,,,0.00,0,Wunderground v.1.15,2013-01-26 03:46:00,
2013-01-25 21:48:00,18.8,10.9,30.27,NNE,24,3.0,7.0,71,0.00,,,0.00,0,Wunderground v.1.15,2013-01-26 03:48:00,
2013-01-25 21:49:00,18.8,10.9,30.28,North,9,4.0,7.0,71,0.00,,,0.00,0,Wunderground v.1.15,2013-01-26 03:49:00,
2013-01-25 21:51:00,18.7,10.9,30.28,North,9,4.0,4.0,71,0.00,,,0.00,0,Wunderground v.1.15,2013-01-26 03:51:00,
2013-01-25 21:53:00,18.5,10.7,30.28,NNE,22,1.0,4.0,71,0.00,,,0.00,0,Wunderground v.1.15,2013-01-26 03:53:00,
2013-01-25 21:54:00,18.5,10.7,30.28,NNE,22,1.0,4.0,71,0.00,,,0.00,0,Wunderground v.1.15,2013-01-26 03:54:00,
2013-01-25 21:59:00,18.3,10.8,30.28,NE,38,5.0,5.0,72,0.00,,,0.00,0,Wunderground v.1.15,2013-01-26 03:59:00,
2013-01-25 22:03:00,18.1,10.6,30.28,North,355,4.0,4.0,72,0.00,,,0.00,0,Wunderground v.1.15,2013-01-26 04:03:00,
2013-01-25 22:04:00,18.1,10.6,30.28,North,11,0.0,4.0,72,0.00,,,0.00,0,Wunderground v.1.15,2013-01-26 04:04:00,
2013-01-25 22:05:00,18.1,10.6,30.28,NNE,13,2.0,4.0,72,0.00,,,0.00,0,Wunderground v.1.15,2013-01-26 04:05:00,
2013-01-25 22:06:00,18.1,10.6,30.28,NNE,13,1.0,4.0,72,0.00,,,0.00,0,Wunderground v.1.15,2013-01-26 04:06:00,
2013-01-25 22:09:00,18.0,10.8,30.28,NNE,19,2.0,4.0,73,0.00,,,0.00,0,Wunderground v.1.15,2013-01-26 04:09:00,
2013-01-25 22:11:00,17.9,10.7,30.28,NNE,22,2.0,4.0,73,0.00,,,0.00,0,Wunderground v.1.15,2013-01-26 04:11:00,
2013-01-25 22:14:00,17.7,10.5,30.28,NNE,22,2.0,4.0,73,0.00,,,0.00,0,Wunderground v.1.15,2013-01-26 04:14:00,
2013-01-25 22:15:00,17.7,10.5,30.28,NNE,22,1.0,4.0,73,0.00,,,0.00,0,Wunderground v.1.15,2013-01-26 04:15:00,
2013-01-25 22:17:00,17.6,10.1,30.28,NE,43,1.0,6.0,72,0.00,,,0.00,0,Wunderground v.1.15,2013-01-26 04:17:00,
2013-01-25 22:20:00,17.5,10.0,30.28,North,350,4.0,6.0,72,0.00,,,0.00,0,Wunderground v.1.15,2013-01-26 04:20:00,
2013-01-25 22:21:00,17.5,10.0,30.28,NNE,27,0.0,6.0,72,0.00,,,0.00,0,Wunderground v.1.15,2013-01-26 04:21:00,
2013-01-25 22:22:00,17.3,9.8,30.28,North,10,3.0,6.0,72,0.00,,,0.00,0,Wunderground v.1.15,2013-01-26 04:22:00,
2013-01-25 22:26:00,17.2,9.4,30.28,NNE,23,5.0,7.0,71,0.00,,,0.00,0,Wunderground v.1.15,2013-01-26 04:26:00,
2013-01-25 22:27:00,17.1,9.3,30.28,North,5,7.0,7.0,71,0.00,,,0.00,0,Wunderground v.1.15,2013-01-26 04:27:00,
2013-01-25 22:29:00,17.1,9.3,30.28,NNE,20,4.0,7.0,71,0.00,,,0.00,0,Wunderground v.1.15,2013-01-26 04:29:00,
2013-01-25 22:31:00,17.1,9.3,30.28,NNE,26,3.0,3.0,71,0.00,,,0.00,0,Wunderground v.1.15,2013-01-26 04:31:00,
2013-01-25 22:33:00,17.0,9.2,30.28,NNE,26,2.0,3.0,71,0.00,,,0.00,0,Wunderground v.1.15,2013-01-26 04:33:00,
2013-01-25 22:34:00,16.9,9.1,30.28,NNE,19,4.0,5.0,71,0.00,,,0.00,0,Wunderground v.1.15,2013-01-26 04:34:00,
2013-01-25 22:35:00,16.9,9.1,30.28,NE,49,4.0,5.0,71,0.00,,,0.00,0,Wunderground v.1.15,2013-01-26 04:35:00,
2013-01-25 22:38:00,16.8,9.3,30.28,NNE,31,2.0,5.0,72,0.00,,,0.00,0,Wunderground v.1.15,2013-01-26 04:38:00,
2013-01-25 22:39:00,16.8,9.3,30.28,NNE,31,2.0,5.0,72,0.00,,,0.00,0,Wunderground v.1.15,2013-01-26 04:39:00,
2013-01-25 22:40:00,16.7,9.2,30.28,North,5,3.0,4.0,72,0.00,,,0.00,0,Wunderground v.1.15,2013-01-26 04:40:00,
2013-01-25 22:43:00,16.6,9.1,30.28,NNE,22,2.0,4.0,72,0.00,,,0.00,0,Wunderground v.1.15,2013-01-26 04:43:00,
2013-01-25 22:45:00,16.6,9.1,30.28,North,349,4.0,4.0,72,0.00,,,0.00,0,Wunderground v.1.15,2013-01-26 04:45:00,
2013-01-25 22:46:00,16.5,9.0,30.28,NNE,16,4.0,4.0,72,0.00,,,0.00,0,Wunderground v.1.15,2013-01-26 04:46:00,
2013-01-25 22:49:00,16.4,8.9,30.28,North,355,7.0,7.0,72,0.00,,,0.00,0,Wunderground v.1.15,2013-01-26 04:49:00,
2013-01-25 22:52:00,16.4,8.6,30.28,NW,320,1.0,6.0,71,0.00,,,0.00,0,Wunderground v.1.15,2013-01-26 04:52:00,
2013-01-25 22:53:00,16.3,8.5,30.28,NNE,26,2.0,6.0,71,0.00,,,0.00,0,Wunderground v.1.15,2013-01-26 04:53:00,
2013-01-25 22:54:00,16.3,8.5,30.29,NNE,28,4.0,6.0,71,0.00,,,0.00,0,Wunderground v.1.15,2013-01-26 04:54:00,
2013-01-25 22:57:00,16.2,8.4,30.29,NNE,28,2.0,6.0,71,0.00,,,0.00,0,Wunderground v.1.15,2013-01-26 04:57:00,
2013-01-25 22:58:00,16.2,8.4,30.29,NNE,28,2.0,6.0,71,0.00,,,0.00,0,Wunderground v.1.15,2013-01-26 04:58:00,
2013-01-25 23:00:00,16.1,8.7,30.29,NNE,28,0.0,3.0,72,0.00,,,0.00,0,Wunderground v.1.15,2013-01-26 05:00:00,
2013-01-25 23:02:00,15.9,8.5,30.29,NNE,28,1.0,3.0,72,0.00,,,0.00,0,Wunderground v.1.15,2013-01-26 05:02:00,
2013-01-25 23:05:00,15.9,8.8,30.29,North,349,4.0,4.0,73,0.00,,,0.00,0,Wunderground v.1.15,2013-01-26 05:05:00,
2013-01-25 23:07:00,15.8,8.7,30.30,NNE,22,2.0,4.0,73,0.00,,,0.00,0,Wunderground v.1.15,2013-01-26 05:07:00,
2013-01-25 23:10:00,15.7,8.3,30.30,NNE,22,2.0,4.0,72,0.00,,,0.00,0,Wunderground v.1.15,2013-01-26 05:10:00,
2013-01-25 23:12:00,15.7,8.3,30.30,NE,34,3.0,5.0,72,0.00,,,0.00,0,Wunderground v.1.15,2013-01-26 05:12:00,
2013-01-25 23:14:00,15.6,8.2,30.29,NE,34,3.0,5.0,72,0.00,,,0.00,0,Wunderground v.1.15,2013-01-26 05:14:00,
2013-01-25 23:15:00,15.6,7.9,30.30,NE,36,3.0,6.0,71,0.00,,,0.00,0,Wunderground v.1.15,2013-01-26 05:15:00,
2013-01-25 23:19:00,15.5,7.8,30.29,NNE,30,3.0,6.0,71,0.00,,,0.00,0,Wunderground v.1.15,2013-01-26 05:19:00,
2013-01-25 23:20:00,15.4,8.0,30.30,NNE,31,3.0,3.0,72,0.00,,,0.00,0,Wunderground v.1.15,2013-01-26 05:20:00,
2013-01-25 23:21:00,15.4,8.0,30.29,NNE,21,4.0,4.0,72,0.00,,,0.00,0,Wunderground v.1.15,2013-01-26 05:21:00,
2013-01-25 23:24:00,15.4,7.7,30.29,NE,37,2.0,8.0,71,0.00,,,0.00,0,Wunderground v.1.15,2013-01-26 05:24:00,
2013-01-25 23:25:00,15.3,7.6,30.29,NNE,32,2.0,8.0,71,0.00,,,0.00,0,Wunderground v.1.15,2013-01-26 05:25:00,
2013-01-25 23:26:00,15.3,7.6,30.30,North,355,3.0,8.0,71,0.00,,,0.00,0,Wunderground v.1.15,2013-01-26 05:26:00,
2013-01-25 23:30:00,15.2,7.2,30.30,NE,41,4.0,4.0,70,0.00,,,0.00,0,Wunderground v.1.15,2013-01-26 05:30:00,
2013-01-25 23:32:00,15.2,7.2,30.30,NNE,30,3.0,6.0,70,0.00,,,0.00,0,Wunderground v.1.15,2013-01-26 05:32:00,
2013-01-25 23:34:00,15.1,7.1,30.30,NNE,28,2.0,6.0,70,0.00,,,0.00,0,Wunderground v.1.15,2013-01-26 05:34:00,
2013-01-25 23:36:00,15.0,6.7,30.30,NNE,23,4.0,6.0,69,0.00,,,0.00,0,Wunderground v.1.15,2013-01-26 05:36:00,
2013-01-25 23:37:00,15.0,6.3,30.30,North,351,8.0,8.0,68,0.00,,,0.00,0,Wunderground v.1.15,2013-01-26 05:37:00,
2013-01-25 23:38:00,15.0,6.3,30.30,NNE,25,3.0,8.0,68,0.00,,,0.00,0,Wunderground v.1.15,2013-01-26 05:38:00,
2013-01-25 23:40:00,14.9,6.2,30.30,NE,49,5.0,8.0,68,0.00,,,0.00,0,Wunderground v.1.15,2013-01-26 05:40:00,
2013-01-25 23:41:00,14.8,5.8,30.30,North,5,5.0,6.0,67,0.00,,,0.00,0,Wunderground v.1.15,2013-01-26 05:41:00,
2013-01-25 23:43:00,14.8,5.8,30.30,NE,44,5.0,6.0,67,0.00,,,0.00,0,Wunderground v.1.15,2013-01-26 05:43:00,
2013-01-25 23:46:00,14.7,5.4,30.30,NNE,14,6.0,11.0,66,0.00,,,0.00,0,Wunderground v.1.15,2013-01-26 05:46:00,
2013-01-25 23:48:00,14.6,5.3,30.30,NE,35,7.0,11.0,66,0.00,,,0.00,0,Wunderground v.1.15,2013-01-26 05:48:00,
2013-01-25 23:51:00,14.6,5.3,30.29,NNE,28,3.0,5.0,66,0.00,,,0.00,0,Wunderground v.1.15,2013-01-26 05:51:00,
2013-01-25 23:54:00,14.5,4.9,30.29,NE,38,6.0,7.0,65,0.00,,,0.00,0,Wunderground v.1.15,2013-01-26 05:54:00,
2013-01-25 23:55:00,14.5,4.9,30.29,NNE,30,3.0,8.0,65,0.00,,,0.00,0,Wunderground v.1.15,2013-01-26 05:55:00,
2013-01-25 23:58:00,14.4,4.8,30.29,North,11,3.0,8.0,65,0.00,,,0.00,0,Wunderground v.1.15,2013-01-26 05:58:00,
2013-01-25 23:59:00,14.4,4.8,30.29,NE,36,2.0,8.0,65,0.00,,,0.00,0,Wunderground v.1.15,2013-01-26 05:59:00,